IBE3SD LEMD-KJFK
Flight info
| Callsign | IBE3SD |
|---|---|
| Flight time | N/A |
| Altitude | 37000 |
| Route | ZMR N733 DESAT/N0473F380 DCT STG DCT KOPAS/M081F380 DCT 45N020W 46N030W 46N040W 45N050W DCT RAFIN/N0466F400 N82A KANNI DCT PLYMM PARCH3 |
| Aircraft | A333/H-SDE3GHIJ2J3J5M1RVWXY/LB2D1 |
Departure
| Time | 2026-05-05 14:20 |
|---|---|
| Airport | Adolfo Suárez Madrid–Barajas Airport (LEMD) |
Arrival
| Time | N/A |
|---|---|
| Airport | John F. Kennedy International Airport (KJFK) |
| Time | Latitude | Longitude | Altitude | Speed | Heading |
|---|---|---|---|---|---|
| 2026-05-05 13:43 | 40.49599 | -3.56876 | 1976 ft | 0 kts | 90° |
| 2026-05-05 13:57 | 40.49599 | -3.56877 | 1976 ft | 0 kts | 90° |
| 2026-05-05 14:04 | 40.49599 | -3.56886 | 1976 ft | 2 kts | 90° |
| 2026-05-05 14:04 | 40.49599 | -3.56901 | 1980 ft | 2 kts | 90° |
| 2026-05-05 14:05 | 40.49599 | -3.56922 | 1978 ft | 2 kts | 90° |
| 2026-05-05 14:05 | 40.49599 | -3.56943 | 1980 ft | 2 kts | 90° |
| 2026-05-05 14:05 | 40.49599 | -3.56965 | 1981 ft | 2 kts | 90° |
| 2026-05-05 14:05 | 40.49601 | -3.56986 | 1982 ft | 2 kts | 114° |
| 2026-05-05 14:06 | 40.49611 | -3.57001 | 1982 ft | 2 kts | 166° |
| 2026-05-05 14:06 | 40.49616 | -3.57003 | 1984 ft | 0 kts | 181° |
| 2026-05-05 14:09 | 40.49612 | -3.57003 | 1982 ft | 1 kts | 181° |
| 2026-05-05 14:09 | 40.49606 | -3.57003 | 1982 ft | 1 kts | 181° |
| 2026-05-05 14:09 | 40.49594 | -3.57004 | 1984 ft | 3 kts | 181° |
| 2026-05-05 14:09 | 40.49568 | -3.57004 | 1983 ft | 4 kts | 181° |
| 2026-05-05 14:10 | 40.49533 | -3.57005 | 1983 ft | 6 kts | 181° |
| 2026-05-05 14:10 | 40.49493 | -3.57004 | 1983 ft | 6 kts | 178° |
| 2026-05-05 14:10 | 40.49447 | -3.57003 | 1981 ft | 7 kts | 180° |
| 2026-05-05 14:10 | 40.49401 | -3.57003 | 1979 ft | 6 kts | 180° |
| 2026-05-05 14:11 | 40.49358 | -3.57002 | 1979 ft | 6 kts | 180° |
| 2026-05-05 14:11 | 40.49325 | -3.57005 | 1980 ft | 4 kts | 189° |
| 2026-05-05 14:11 | 40.49308 | -3.57016 | 1983 ft | 1 kts | 210° |
| 2026-05-05 14:11 | 40.49303 | -3.57022 | 1983 ft | 1 kts | 219° |
| 2026-05-05 14:12 | 40.49298 | -3.57029 | 1985 ft | 1 kts | 227° |
| 2026-05-05 14:12 | 40.49290 | -3.57050 | 1985 ft | 6 kts | 245° |
| 2026-05-05 14:12 | 40.49288 | -3.57091 | 1985 ft | 7 kts | 267° |
| 2026-05-05 14:12 | 40.49288 | -3.57157 | 1983 ft | 8 kts | 270° |
| 2026-05-05 14:13 | 40.49267 | -3.57218 | 1988 ft | 7 kts | 222° |
| 2026-05-05 14:13 | 40.49244 | -3.57226 | 1987 ft | 4 kts | 189° |
| 2026-05-05 14:13 | 40.49196 | -3.57255 | 1990 ft | 11 kts | 230° |
| 2026-05-05 14:13 | 40.49181 | -3.57323 | 1989 ft | 0 kts | 267° |
| 2026-05-05 14:17 | 40.49181 | -3.57322 | 1989 ft | 0 kts | 267° |
| 2026-05-05 14:17 | 40.49181 | -3.57323 | 1989 ft | 2 kts | 267° |
| 2026-05-05 14:18 | 40.49180 | -3.57386 | 1989 ft | 11 kts | 275° |
| 2026-05-05 14:18 | 40.49211 | -3.57447 | 1992 ft | 13 kts | 329° |
| 2026-05-05 14:18 | 40.49255 | -3.57451 | 1989 ft | 0 kts | 1° |
| 2026-05-05 14:19 | 40.49274 | -3.57451 | 1989 ft | 15 kts | 1° |
| 2026-05-05 14:19 | 40.49565 | -3.57452 | 1988 ft | 66 kts | 359° |
| 2026-05-05 14:20 | 40.50222 | -3.57459 | 1995 ft | 123 kts | 359° |
| 2026-05-05 14:20 | 40.51249 | -3.57483 | 2053 ft | 168 kts | 357° |
| 2026-05-05 14:20 | 40.52488 | -3.57468 | 2473 ft | 187 kts | 354° |
| 2026-05-05 14:20 | 40.53792 | -3.57440 | 3260 ft | 194 kts | 15° |
| 2026-05-05 14:21 | 40.54888 | -3.56269 | 3800 ft | 220 kts | 59° |
| 2026-05-05 14:21 | 40.55533 | -3.54404 | 4535 ft | 225 kts | 58° |
| 2026-05-05 14:21 | 40.56581 | -3.52945 | 5040 ft | 219 kts | 25° |
| 2026-05-05 14:21 | 40.57967 | -3.52118 | 5520 ft | 224 kts | 28° |
| 2026-05-05 14:22 | 40.59170 | -3.50780 | 6018 ft | 228 kts | 31° |
| 2026-05-05 14:22 | 40.60626 | -3.50069 | 6350 ft | 228 kts | 354° |
| 2026-05-05 14:22 | 40.62093 | -3.50770 | 6721 ft | 231 kts | 316° |
| 2026-05-05 14:22 | 40.62928 | -3.52550 | 7267 ft | 234 kts | 287° |
| 2026-05-05 14:23 | 40.63193 | -3.54653 | 8009 ft | 234 kts | 275° |
| 2026-05-05 14:23 | 40.63287 | -3.56804 | 8717 ft | 235 kts | 274° |
| 2026-05-05 14:23 | 40.63392 | -3.58940 | 9528 ft | 234 kts | 275° |
| 2026-05-05 14:23 | 40.63526 | -3.61092 | 10153 ft | 238 kts | 275° |
| 2026-05-05 14:24 | 40.63722 | -3.63281 | 10674 ft | 244 kts | 282° |
| 2026-05-05 14:24 | 40.64396 | -3.65325 | 11297 ft | 247 kts | 306° |
| 2026-05-05 14:24 | 40.65713 | -3.66810 | 11799 ft | 259 kts | 329° |
| 2026-05-05 14:24 | 40.67523 | -3.67459 | 12049 ft | 284 kts | 354° |
| 2026-05-05 14:25 | 40.69569 | -3.67305 | 12278 ft | 305 kts | 4° |
| 2026-05-05 14:25 | 40.71734 | -3.66936 | 12503 ft | 323 kts | 5° |
| 2026-05-05 14:25 | 40.74019 | -3.66638 | 12723 ft | 337 kts | 357° |
| 2026-05-05 14:25 | 40.76366 | -3.67061 | 12947 ft | 346 kts | 339° |
| 2026-05-05 14:26 | 40.78496 | -3.68538 | 13410 ft | 348 kts | 319° |
| 2026-05-05 14:26 | 40.80122 | -3.70876 | 13982 ft | 347 kts | 302° |
| 2026-05-05 14:26 | 40.81367 | -3.73611 | 14503 ft | 350 kts | 298° |
| 2026-05-05 14:26 | 40.82539 | -3.76439 | 15013 ft | 353 kts | 297° |
| 2026-05-05 14:27 | 40.83713 | -3.79301 | 15541 ft | 356 kts | 297° |
| 2026-05-05 14:27 | 40.84897 | -3.82175 | 16098 ft | 358 kts | 297° |
| 2026-05-05 14:27 | 40.86094 | -3.85064 | 16708 ft | 358 kts | 298° |
| 2026-05-05 14:27 | 40.87293 | -3.87951 | 17299 ft | 360 kts | 298° |
| 2026-05-05 14:28 | 40.88504 | -3.90865 | 17792 ft | 363 kts | 298° |
| 2026-05-05 14:28 | 40.89725 | -3.93801 | 18250 ft | 366 kts | 298° |
| 2026-05-05 14:28 | 40.90955 | -3.96763 | 18685 ft | 369 kts | 298° |
| 2026-05-05 14:28 | 40.92190 | -3.99737 | 19177 ft | 370 kts | 298° |
| 2026-05-05 14:29 | 40.93430 | -4.02726 | 19640 ft | 371 kts | 298° |
| 2026-05-05 14:29 | 40.94674 | -4.05727 | 20109 ft | 373 kts | 297° |
| 2026-05-05 14:29 | 40.95925 | -4.08747 | 20550 ft | 375 kts | 297° |
| 2026-05-05 14:29 | 40.97179 | -4.11779 | 20977 ft | 377 kts | 297° |
| 2026-05-05 14:30 | 40.98440 | -4.14829 | 21424 ft | 378 kts | 297° |
| 2026-05-05 14:30 | 40.99703 | -4.17889 | 21864 ft | 380 kts | 297° |
| 2026-05-05 14:30 | 41.00972 | -4.20966 | 22277 ft | 382 kts | 297° |
| 2026-05-05 14:30 | 41.02197 | -4.24098 | 22702 ft | 383 kts | 295° |
| 2026-05-05 14:31 | 41.03383 | -4.27270 | 23112 ft | 385 kts | 295° |
| 2026-05-05 14:31 | 41.04566 | -4.30460 | 23511 ft | 387 kts | 295° |
| 2026-05-05 14:31 | 41.05757 | -4.33675 | 23775 ft | 392 kts | 295° |
| 2026-05-05 14:31 | 41.06954 | -4.36908 | 23885 ft | 399 kts | 295° |
| 2026-05-05 14:32 | 41.08179 | -4.40218 | 24243 ft | 400 kts | 295° |
| 2026-05-05 14:32 | 41.09402 | -4.43524 | 24627 ft | 399 kts | 295° |
| 2026-05-05 14:32 | 41.10623 | -4.46828 | 24999 ft | 400 kts | 295° |
| 2026-05-05 14:32 | 41.11848 | -4.50145 | 25324 ft | 401 kts | 295° |
| 2026-05-05 14:33 | 41.13072 | -4.53465 | 25658 ft | 402 kts | 295° |
| 2026-05-05 14:33 | 41.14299 | -4.56795 | 25991 ft | 402 kts | 295° |
| 2026-05-05 14:33 | 41.15524 | -4.60128 | 26394 ft | 401 kts | 295° |
| 2026-05-05 14:33 | 41.16744 | -4.63447 | 26790 ft | 400 kts | 295° |
| 2026-05-05 14:34 | 41.17964 | -4.66770 | 27094 ft | 402 kts | 295° |
| 2026-05-05 14:34 | 41.19189 | -4.70111 | 27375 ft | 403 kts | 295° |
| 2026-05-05 14:34 | 41.20418 | -4.73466 | 27639 ft | 405 kts | 295° |
| 2026-05-05 14:34 | 41.21649 | -4.76832 | 27932 ft | 406 kts | 295° |
| 2026-05-05 14:35 | 41.22885 | -4.80214 | 28230 ft | 407 kts | 295° |
| 2026-05-05 14:35 | 41.24123 | -4.83606 | 28523 ft | 409 kts | 295° |
| 2026-05-05 14:35 | 41.25365 | -4.87013 | 28768 ft | 411 kts | 295° |
| 2026-05-05 14:35 | 41.26615 | -4.90447 | 28980 ft | 414 kts | 295° |
| 2026-05-05 14:36 | 41.27869 | -4.93896 | 29275 ft | 415 kts | 295° |
| 2026-05-05 14:36 | 41.29123 | -4.97348 | 29606 ft | 414 kts | 295° |
| 2026-05-05 14:36 | 41.30369 | -5.00783 | 30032 ft | 412 kts | 295° |
| 2026-05-05 14:36 | 41.31616 | -5.04223 | 30245 ft | 414 kts | 295° |
| 2026-05-05 14:37 | 41.32867 | -5.07681 | 30396 ft | 416 kts | 295° |
| 2026-05-05 14:37 | 41.34125 | -5.11161 | 30565 ft | 418 kts | 295° |
| 2026-05-05 14:37 | 41.35387 | -5.14657 | 30740 ft | 420 kts | 295° |
| 2026-05-05 14:37 | 41.36655 | -5.18175 | 30907 ft | 422 kts | 295° |
| 2026-05-05 14:38 | 41.37928 | -5.21709 | 31088 ft | 424 kts | 295° |
| 2026-05-05 14:38 | 41.39200 | -5.25245 | 31334 ft | 424 kts | 295° |
| 2026-05-05 14:38 | 41.40469 | -5.28778 | 31591 ft | 424 kts | 294° |
| 2026-05-05 14:38 | 41.41743 | -5.32327 | 31839 ft | 424 kts | 294° |
| 2026-05-05 14:39 | 41.43011 | -5.35866 | 32136 ft | 422 kts | 295° |
| 2026-05-05 14:39 | 41.44269 | -5.39381 | 32494 ft | 420 kts | 295° |
| 2026-05-05 14:39 | 41.45529 | -5.42907 | 32624 ft | 423 kts | 295° |
| 2026-05-05 14:39 | 41.46793 | -5.46448 | 32794 ft | 424 kts | 295° |
| 2026-05-05 14:40 | 41.48059 | -5.49997 | 33021 ft | 424 kts | 295° |
| 2026-05-05 14:40 | 41.49323 | -5.53548 | 33244 ft | 424 kts | 295° |
| 2026-05-05 14:40 | 41.50586 | -5.57097 | 33465 ft | 424 kts | 294° |
| 2026-05-05 14:40 | 41.51848 | -5.60651 | 33676 ft | 424 kts | 294° |
| 2026-05-05 14:41 | 41.53127 | -5.64198 | 33860 ft | 425 kts | 296° |
| 2026-05-05 14:41 | 41.54632 | -5.67596 | 34050 ft | 426 kts | 303° |
| 2026-05-05 14:41 | 41.56433 | -5.70747 | 34199 ft | 427 kts | 306° |
| 2026-05-05 14:41 | 41.58203 | -5.73920 | 34436 ft | 424 kts | 304° |
| 2026-05-05 14:42 | 41.59922 | -5.77107 | 34686 ft | 422 kts | 303° |
| 2026-05-05 14:42 | 41.61617 | -5.80314 | 34816 ft | 423 kts | 303° |
| 2026-05-05 14:42 | 41.63305 | -5.83548 | 34948 ft | 424 kts | 303° |
| 2026-05-05 14:42 | 41.64993 | -5.86800 | 35002 ft | 428 kts | 303° |
| 2026-05-05 14:43 | 41.66689 | -5.90073 | 35107 ft | 428 kts | 303° |
| 2026-05-05 14:43 | 41.68386 | -5.93345 | 35265 ft | 428 kts | 303° |
| 2026-05-05 14:43 | 41.70085 | -5.96622 | 35404 ft | 429 kts | 303° |
| 2026-05-05 14:43 | 41.71784 | -5.99898 | 35531 ft | 429 kts | 303° |
| 2026-05-05 14:44 | 41.73464 | -6.03139 | 35666 ft | 429 kts | 303° |
| 2026-05-05 14:44 | 41.75166 | -6.06423 | 35792 ft | 430 kts | 303° |
| 2026-05-05 14:44 | 41.76871 | -6.09718 | 35910 ft | 430 kts | 303° |
| 2026-05-05 14:44 | 41.78569 | -6.13001 | 36139 ft | 428 kts | 303° |
| 2026-05-05 14:45 | 41.80262 | -6.16279 | 36295 ft | 428 kts | 303° |
| 2026-05-05 14:45 | 41.81957 | -6.19563 | 36404 ft | 429 kts | 303° |
| 2026-05-05 14:45 | 41.85364 | -6.26181 | 36493 ft | 433 kts | 303° |
| 2026-05-05 14:46 | 41.87076 | -6.29514 | 36633 ft | 433 kts | 303° |
| 2026-05-05 14:46 | 41.88784 | -6.32842 | 36769 ft | 433 kts | 303° |
| 2026-05-05 14:46 | 41.90493 | -6.36174 | 36897 ft | 433 kts | 303° |
| 2026-05-05 14:46 | 41.92204 | -6.39515 | 36974 ft | 434 kts | 303° |
| 2026-05-05 14:47 | 41.95618 | -6.46193 | 36977 ft | 433 kts | 303° |
| 2026-05-05 14:47 | 41.99018 | -6.52856 | 36980 ft | 431 kts | 303° |
| 2026-05-05 14:48 | 42.02401 | -6.59502 | 36996 ft | 431 kts | 303° |
| 2026-05-05 14:48 | 42.05788 | -6.66170 | 36991 ft | 433 kts | 303° |
| 2026-05-05 14:49 | 42.09179 | -6.72861 | 37009 ft | 433 kts | 303° |
| 2026-05-05 14:49 | 42.12568 | -6.79562 | 37010 ft | 433 kts | 303° |
| 2026-05-05 14:50 | 42.15922 | -6.86208 | 37014 ft | 432 kts | 303° |
| 2026-05-05 14:50 | 42.19287 | -6.92893 | 37027 ft | 430 kts | 303° |
| 2026-05-05 14:51 | 42.22637 | -6.99563 | 37035 ft | 430 kts | 303° |
| 2026-05-05 14:51 | 42.25996 | -7.06263 | 37033 ft | 430 kts | 303° |
| 2026-05-05 14:52 | 42.29347 | -7.12963 | 37039 ft | 430 kts | 303° |
| 2026-05-05 14:52 | 42.32691 | -7.19665 | 37046 ft | 430 kts | 303° |
| 2026-05-05 14:53 | 42.36030 | -7.26370 | 37043 ft | 428 kts | 303° |
| 2026-05-05 14:53 | 42.39343 | -7.33038 | 37055 ft | 427 kts | 304° |
| 2026-05-05 14:54 | 42.42657 | -7.39725 | 37049 ft | 429 kts | 304° |
| 2026-05-05 14:54 | 42.45980 | -7.46443 | 37051 ft | 429 kts | 304° |
| 2026-05-05 14:55 | 42.49299 | -7.53170 | 37051 ft | 429 kts | 303° |
| 2026-05-05 14:55 | 42.52614 | -7.59902 | 37046 ft | 429 kts | 303° |
| 2026-05-05 14:56 | 42.55918 | -7.66627 | 37055 ft | 427 kts | 304° |
| 2026-05-05 14:56 | 42.59206 | -7.73336 | 37052 ft | 427 kts | 303° |
| 2026-05-05 14:57 | 42.62466 | -7.80001 | 37054 ft | 426 kts | 303° |
| 2026-05-05 14:57 | 42.65741 | -7.86714 | 37055 ft | 426 kts | 303° |
| 2026-05-05 14:58 | 42.69014 | -7.93436 | 37056 ft | 426 kts | 303° |
| 2026-05-05 14:58 | 42.72284 | -8.00166 | 37052 ft | 427 kts | 303° |
| 2026-05-05 14:59 | 42.75550 | -8.06906 | 37061 ft | 427 kts | 304° |
| 2026-05-05 14:59 | 42.78823 | -8.13674 | 37056 ft | 428 kts | 303° |
| 2026-05-05 15:00 | 42.81543 | -8.19310 | 37061 ft | 428 kts | 303° |
| 2026-05-05 15:00 | 42.85361 | -8.27239 | 37065 ft | 428 kts | 303° |
| 2026-05-05 15:01 | 42.88623 | -8.34031 | 37061 ft | 428 kts | 303° |
| 2026-05-05 15:01 | 42.91827 | -8.40869 | 37072 ft | 427 kts | 299° |
| 2026-05-05 15:02 | 42.94191 | -8.48310 | 37062 ft | 429 kts | 292° |
| 2026-05-05 15:02 | 42.96219 | -8.55981 | 37064 ft | 430 kts | 291° |
| 2026-05-05 15:03 | 42.98177 | -8.63703 | 37063 ft | 430 kts | 291° |
| 2026-05-05 15:03 | 43.00135 | -8.71424 | 37066 ft | 430 kts | 291° |
| 2026-05-05 15:04 | 43.01769 | -8.77843 | 37067 ft | 431 kts | 291° |
| 2026-05-05 15:04 | 43.03738 | -8.85576 | 37068 ft | 431 kts | 291° |
| 2026-05-05 15:05 | 43.06686 | -8.97192 | 37073 ft | 431 kts | 290° |
| 2026-05-05 15:06 | 43.08643 | -9.04940 | 37072 ft | 431 kts | 291° |
| 2026-05-05 15:06 | 43.10598 | -9.12705 | 37076 ft | 432 kts | 290° |
| 2026-05-05 15:07 | 43.12550 | -9.20481 | 37078 ft | 432 kts | 290° |
| 2026-05-05 15:07 | 43.14497 | -9.28268 | 37078 ft | 432 kts | 290° |
| 2026-05-05 15:08 | 43.16439 | -9.36057 | 37078 ft | 432 kts | 290° |
| 2026-05-05 15:08 | 43.18376 | -9.43855 | 37078 ft | 432 kts | 290° |
| 2026-05-05 15:09 | 43.20307 | -9.51655 | 37078 ft | 432 kts | 290° |
| 2026-05-05 15:09 | 43.22232 | -9.59458 | 37078 ft | 432 kts | 290° |
| 2026-05-05 15:10 | 43.24152 | -9.67264 | 37078 ft | 433 kts | 290° |
| 2026-05-05 15:10 | 43.26071 | -9.75093 | 37080 ft | 433 kts | 290° |
| 2026-05-05 15:11 | 43.27984 | -9.82926 | 37081 ft | 433 kts | 290° |
| 2026-05-05 15:11 | 43.29879 | -9.90710 | 37086 ft | 433 kts | 290° |
| 2026-05-05 15:12 | 43.31780 | -9.98550 | 37090 ft | 433 kts | 290° |
| 2026-05-05 15:12 | 43.33675 | -10.06390 | 37088 ft | 433 kts | 289° |
| 2026-05-05 15:13 | 43.35566 | -10.14238 | 37093 ft | 433 kts | 289° |
| 2026-05-05 15:13 | 43.37452 | -10.22095 | 37092 ft | 433 kts | 289° |
| 2026-05-05 15:14 | 43.39336 | -10.29967 | 37102 ft | 434 kts | 289° |
| 2026-05-05 15:14 | 43.41218 | -10.37864 | 37102 ft | 435 kts | 289° |
| 2026-05-05 15:15 | 43.43095 | -10.45763 | 37103 ft | 435 kts | 289° |
| 2026-05-05 15:15 | 43.44967 | -10.53669 | 37103 ft | 435 kts | 289° |
| 2026-05-05 15:16 | 43.46834 | -10.61586 | 37114 ft | 435 kts | 289° |
| 2026-05-05 15:16 | 43.48700 | -10.69523 | 37123 ft | 436 kts | 289° |
| 2026-05-05 15:17 | 43.50564 | -10.77479 | 37106 ft | 436 kts | 289° |
| 2026-05-05 15:17 | 43.52421 | -10.85438 | 37112 ft | 437 kts | 289° |
| 2026-05-05 15:18 | 43.54275 | -10.93412 | 37118 ft | 437 kts | 289° |
| 2026-05-05 15:18 | 43.56127 | -11.01403 | 37120 ft | 438 kts | 289° |
| 2026-05-05 15:19 | 43.57976 | -11.09411 | 37125 ft | 439 kts | 289° |
| 2026-05-05 15:19 | 43.59820 | -11.17429 | 37127 ft | 438 kts | 289° |
| 2026-05-05 15:20 | 43.61659 | -11.25453 | 37140 ft | 438 kts | 288° |
| 2026-05-05 15:20 | 43.63480 | -11.33425 | 37124 ft | 439 kts | 288° |
| 2026-05-05 15:21 | 43.65308 | -11.41461 | 37130 ft | 439 kts | 288° |
| 2026-05-05 15:21 | 43.67134 | -11.49518 | 37132 ft | 440 kts | 288° |
| 2026-05-05 15:22 | 43.68956 | -11.57582 | 37140 ft | 440 kts | 288° |
| 2026-05-05 15:22 | 43.70772 | -11.65655 | 37137 ft | 440 kts | 288° |
| 2026-05-05 15:23 | 43.72583 | -11.73735 | 37144 ft | 440 kts | 288° |
| 2026-05-05 15:23 | 43.74387 | -11.81814 | 37135 ft | 440 kts | 288° |
| 2026-05-05 15:24 | 43.76188 | -11.89906 | 37141 ft | 440 kts | 288° |
| 2026-05-05 15:24 | 43.77981 | -11.97996 | 37143 ft | 440 kts | 288° |
| 2026-05-05 15:25 | 43.79769 | -12.06096 | 37160 ft | 440 kts | 288° |
| 2026-05-05 15:25 | 43.81554 | -12.14211 | 37158 ft | 441 kts | 288° |
| 2026-05-05 15:26 | 43.83334 | -12.22335 | 37157 ft | 441 kts | 288° |
| 2026-05-05 15:26 | 43.85109 | -12.30462 | 37150 ft | 441 kts | 288° |
| 2026-05-05 15:27 | 43.86877 | -12.38596 | 37170 ft | 441 kts | 288° |
| 2026-05-05 15:27 | 43.88640 | -12.46734 | 37159 ft | 441 kts | 288° |
| 2026-05-05 15:28 | 43.90399 | -12.54887 | 37167 ft | 441 kts | 288° |
| 2026-05-05 15:28 | 43.92152 | -12.63045 | 37175 ft | 441 kts | 288° |
| 2026-05-05 15:29 | 43.93901 | -12.71212 | 37162 ft | 442 kts | 288° |
| 2026-05-05 15:29 | 43.95646 | -12.79393 | 37171 ft | 442 kts | 288° |
| 2026-05-05 15:30 | 43.97374 | -12.87528 | 37175 ft | 443 kts | 288° |
| 2026-05-05 15:30 | 43.99109 | -12.95727 | 37183 ft | 443 kts | 288° |
| 2026-05-05 15:31 | 44.00762 | -13.03965 | 37175 ft | 443 kts | 285° |
| 2026-05-05 15:31 | 44.02222 | -13.12287 | 37181 ft | 443 kts | 285° |
| 2026-05-05 15:32 | 44.03642 | -13.20624 | 37184 ft | 443 kts | 285° |
| 2026-05-05 15:32 | 44.05073 | -13.28958 | 37183 ft | 443 kts | 285° |
| 2026-05-05 15:33 | 44.06512 | -13.37297 | 37188 ft | 443 kts | 285° |
| 2026-05-05 15:33 | 44.07949 | -13.45633 | 37189 ft | 443 kts | 285° |
| 2026-05-05 15:34 | 44.09380 | -13.53976 | 37195 ft | 443 kts | 285° |
| 2026-05-05 15:34 | 44.10803 | -13.62316 | 37193 ft | 443 kts | 285° |
| 2026-05-05 15:35 | 44.12220 | -13.70661 | 37195 ft | 443 kts | 285° |
| 2026-05-05 15:35 | 44.13629 | -13.79001 | 37203 ft | 443 kts | 285° |
| 2026-05-05 15:36 | 44.15033 | -13.87354 | 37200 ft | 443 kts | 285° |
| 2026-05-05 15:36 | 44.16432 | -13.95710 | 37204 ft | 443 kts | 285° |
| 2026-05-05 15:37 | 44.17814 | -14.04012 | 37207 ft | 443 kts | 285° |
| 2026-05-05 15:37 | 44.19199 | -14.12368 | 37209 ft | 443 kts | 285° |
| 2026-05-05 15:38 | 44.20573 | -14.20695 | 37208 ft | 443 kts | 284° |
| 2026-05-05 15:38 | 44.21946 | -14.29064 | 37205 ft | 443 kts | 285° |
| 2026-05-05 15:39 | 44.23313 | -14.37434 | 37209 ft | 443 kts | 285° |
| 2026-05-05 15:39 | 44.24673 | -14.45803 | 37216 ft | 442 kts | 284° |
| 2026-05-05 15:40 | 44.26027 | -14.54171 | 37218 ft | 442 kts | 284° |
| 2026-05-05 15:40 | 44.27375 | -14.62550 | 37219 ft | 443 kts | 284° |
| 2026-05-05 15:41 | 44.28717 | -14.70936 | 37214 ft | 443 kts | 284° |
| 2026-05-05 15:41 | 44.30054 | -14.79325 | 37224 ft | 443 kts | 284° |
| 2026-05-05 15:42 | 44.31384 | -14.87718 | 37225 ft | 443 kts | 284° |
| 2026-05-05 15:42 | 44.32708 | -14.96113 | 37228 ft | 443 kts | 284° |
| 2026-05-05 15:43 | 44.34026 | -15.04515 | 37234 ft | 443 kts | 284° |
| 2026-05-05 15:43 | 44.35337 | -15.12916 | 37215 ft | 443 kts | 284° |
| 2026-05-05 15:44 | 44.36641 | -15.21314 | 37234 ft | 442 kts | 284° |
| 2026-05-05 15:44 | 44.37939 | -15.29715 | 37233 ft | 442 kts | 284° |
| 2026-05-05 15:45 | 44.39231 | -15.38118 | 37232 ft | 442 kts | 284° |
| 2026-05-05 15:45 | 44.40507 | -15.46469 | 37235 ft | 442 kts | 284° |
| 2026-05-05 15:46 | 44.41787 | -15.54880 | 37234 ft | 442 kts | 284° |
| 2026-05-05 15:46 | 44.43060 | -15.63295 | 37243 ft | 442 kts | 284° |
| 2026-05-05 15:47 | 44.44327 | -15.71717 | 37236 ft | 442 kts | 284° |
| 2026-05-05 15:47 | 44.45588 | -15.80141 | 37257 ft | 442 kts | 284° |
| 2026-05-05 15:48 | 44.46843 | -15.88570 | 37245 ft | 442 kts | 284° |
| 2026-05-05 15:48 | 44.48091 | -15.97002 | 37237 ft | 442 kts | 284° |
| 2026-05-05 15:49 | 44.49333 | -16.05433 | 37254 ft | 442 kts | 284° |
| 2026-05-05 15:49 | 44.50568 | -16.13864 | 37251 ft | 442 kts | 284° |
| 2026-05-05 15:50 | 44.51798 | -16.22305 | 37252 ft | 442 kts | 283° |
| 2026-05-05 15:50 | 44.53020 | -16.30739 | 37262 ft | 442 kts | 283° |
| 2026-05-05 15:51 | 44.54237 | -16.39187 | 37244 ft | 442 kts | 283° |
| 2026-05-05 15:51 | 44.55444 | -16.47612 | 37264 ft | 440 kts | 283° |
| 2026-05-05 15:52 | 44.56644 | -16.56033 | 37267 ft | 440 kts | 283° |
| 2026-05-05 15:52 | 44.57635 | -16.63022 | 37266 ft | 440 kts | 283° |
| 2026-05-05 15:53 | 44.58823 | -16.71438 | 37270 ft | 440 kts | 283° |
| 2026-05-05 15:53 | 44.60003 | -16.79852 | 37269 ft | 439 kts | 283° |
| 2026-05-05 15:54 | 44.61175 | -16.88255 | 37272 ft | 438 kts | 283° |
| 2026-05-05 15:54 | 44.62337 | -16.96639 | 37273 ft | 437 kts | 283° |
| 2026-05-05 15:55 | 44.63493 | -17.05016 | 37277 ft | 437 kts | 283° |
| 2026-05-05 15:55 | 44.64642 | -17.13398 | 37276 ft | 437 kts | 283° |
| 2026-05-05 15:56 | 44.65786 | -17.21789 | 37281 ft | 437 kts | 283° |
| 2026-05-05 15:56 | 44.66922 | -17.30173 | 37278 ft | 436 kts | 283° |
| 2026-05-05 15:57 | 44.68050 | -17.38546 | 37285 ft | 436 kts | 283° |
| 2026-05-05 15:57 | 44.69171 | -17.46910 | 37284 ft | 436 kts | 283° |
| 2026-05-05 15:58 | 44.70287 | -17.55284 | 37287 ft | 436 kts | 283° |
| 2026-05-05 15:58 | 44.71388 | -17.63602 | 37290 ft | 436 kts | 283° |
| 2026-05-05 15:59 | 44.72491 | -17.71984 | 37291 ft | 436 kts | 283° |
| 2026-05-05 15:59 | 44.73589 | -17.80371 | 37292 ft | 436 kts | 283° |
| 2026-05-05 16:00 | 44.74680 | -17.88762 | 37292 ft | 436 kts | 283° |
| 2026-05-05 16:00 | 44.75765 | -17.97154 | 37295 ft | 436 kts | 283° |
| 2026-05-05 16:01 | 44.76844 | -18.05546 | 37303 ft | 436 kts | 283° |
| 2026-05-05 16:01 | 44.77916 | -18.13942 | 37294 ft | 436 kts | 283° |
| 2026-05-05 16:02 | 44.78981 | -18.22333 | 37303 ft | 435 kts | 283° |
| 2026-05-05 16:02 | 44.80040 | -18.30724 | 37303 ft | 435 kts | 283° |
| 2026-05-05 16:03 | 44.81092 | -18.39118 | 37306 ft | 435 kts | 283° |
| 2026-05-05 16:03 | 44.82138 | -18.47511 | 37306 ft | 435 kts | 283° |
| 2026-05-05 16:04 | 44.83179 | -18.55912 | 37290 ft | 435 kts | 283° |
| 2026-05-05 16:04 | 44.84210 | -18.64296 | 37308 ft | 433 kts | 283° |
| 2026-05-05 16:05 | 44.85232 | -18.72659 | 37311 ft | 433 kts | 283° |
| 2026-05-05 16:05 | 44.86247 | -18.81015 | 37312 ft | 433 kts | 283° |
| 2026-05-05 16:06 | 44.87251 | -18.89321 | 37314 ft | 433 kts | 283° |
| 2026-05-05 16:06 | 44.88255 | -18.97687 | 37317 ft | 433 kts | 283° |
| 2026-05-05 16:07 | 44.89250 | -19.06047 | 37317 ft | 431 kts | 284° |
| 2026-05-05 16:07 | 44.90237 | -19.14382 | 37319 ft | 431 kts | 284° |
| 2026-05-05 16:08 | 44.91218 | -19.22714 | 37319 ft | 431 kts | 284° |
| 2026-05-05 16:08 | 44.92192 | -19.31051 | 37320 ft | 430 kts | 284° |
| 2026-05-05 16:09 | 44.93158 | -19.39373 | 37319 ft | 430 kts | 284° |
| 2026-05-05 16:09 | 44.94117 | -19.47689 | 37313 ft | 428 kts | 285° |
| 2026-05-05 16:10 | 44.95065 | -19.55967 | 37327 ft | 426 kts | 285° |
| 2026-05-05 16:10 | 44.96005 | -19.64223 | 37317 ft | 426 kts | 285° |
| 2026-05-05 16:11 | 44.96941 | -19.72487 | 37328 ft | 426 kts | 285° |
| 2026-05-05 16:12 | 44.98792 | -19.89019 | 37325 ft | 426 kts | 284° |
| 2026-05-05 16:13 | 45.01341 | -20.09604 | 37323 ft | 424 kts | 287° |
| 2026-05-05 16:13 | 45.02558 | -20.17761 | 37333 ft | 424 kts | 287° |
| 2026-05-05 16:14 | 45.04936 | -20.34095 | 37330 ft | 424 kts | 288° |
| 2026-05-05 16:15 | 45.07237 | -20.50324 | 37336 ft | 421 kts | 287° |
| 2026-05-05 16:16 | 45.09522 | -20.66583 | 37335 ft | 421 kts | 287° |
| 2026-05-05 16:17 | 45.11217 | -20.78756 | 37317 ft | 420 kts | 287° |
| 2026-05-05 16:18 | 45.12894 | -20.90906 | 37347 ft | 419 kts | 287° |
| 2026-05-05 16:19 | 45.14557 | -21.03048 | 37344 ft | 419 kts | 287° |
| 2026-05-05 16:19 | 45.16207 | -21.15200 | 37346 ft | 419 kts | 287° |
| 2026-05-05 16:20 | 45.18385 | -21.31401 | 37348 ft | 418 kts | 287° |
| 2026-05-05 16:22 | 45.21071 | -21.51634 | 37352 ft | 418 kts | 287° |
| 2026-05-05 16:23 | 45.23194 | -21.67838 | 37351 ft | 418 kts | 286° |
| 2026-05-05 16:23 | 45.24772 | -21.80004 | 37359 ft | 418 kts | 286° |
| 2026-05-05 16:24 | 45.25810 | -21.88065 | 37354 ft | 418 kts | 285° |
| 2026-05-05 16:25 | 45.27366 | -22.00240 | 37361 ft | 418 kts | 285° |
| 2026-05-05 16:25 | 45.28910 | -22.12421 | 37360 ft | 418 kts | 285° |
| 2026-05-05 16:26 | 45.30947 | -22.28672 | 37363 ft | 418 kts | 285° |
| 2026-05-05 16:27 | 45.31958 | -22.36807 | 37363 ft | 418 kts | 285° |
| 2026-05-05 16:27 | 45.32963 | -22.44942 | 37359 ft | 418 kts | 285° |
| 2026-05-05 16:28 | 45.33962 | -22.53082 | 37363 ft | 418 kts | 284° |
| 2026-05-05 16:28 | 45.34954 | -22.61221 | 37356 ft | 418 kts | 284° |
| 2026-05-05 16:29 | 45.35941 | -22.69362 | 37360 ft | 418 kts | 284° |
| 2026-05-05 16:29 | 45.36925 | -22.77521 | 37366 ft | 419 kts | 284° |
| 2026-05-05 16:30 | 45.37902 | -22.85687 | 37367 ft | 419 kts | 284° |
| 2026-05-05 16:30 | 45.38873 | -22.93852 | 37366 ft | 419 kts | 284° |
| 2026-05-05 16:31 | 45.39840 | -23.02025 | 37368 ft | 419 kts | 284° |
| 2026-05-05 16:31 | 45.40799 | -23.10196 | 37346 ft | 419 kts | 284° |
| 2026-05-05 16:32 | 45.41753 | -23.18371 | 37367 ft | 419 kts | 283° |
| 2026-05-05 16:32 | 45.42701 | -23.26548 | 37367 ft | 419 kts | 283° |
| 2026-05-05 16:33 | 45.43644 | -23.34729 | 37371 ft | 419 kts | 283° |
| 2026-05-05 16:33 | 45.44581 | -23.42911 | 37371 ft | 419 kts | 283° |
| 2026-05-05 16:34 | 45.45512 | -23.51101 | 37373 ft | 419 kts | 283° |
| 2026-05-05 16:34 | 45.46436 | -23.59286 | 37366 ft | 419 kts | 283° |
| 2026-05-05 16:35 | 45.47348 | -23.67415 | 37372 ft | 418 kts | 283° |
| 2026-05-05 16:35 | 45.48260 | -23.75598 | 37386 ft | 418 kts | 283° |
| 2026-05-05 16:36 | 45.49166 | -23.83774 | 37373 ft | 418 kts | 283° |
| 2026-05-05 16:36 | 45.50065 | -23.91957 | 37379 ft | 418 kts | 283° |
| 2026-05-05 16:37 | 45.50959 | -24.00137 | 37379 ft | 418 kts | 283° |
| 2026-05-05 16:37 | 45.51845 | -24.08312 | 37377 ft | 415 kts | 283° |
| 2026-05-05 16:38 | 45.52715 | -24.16409 | 37382 ft | 412 kts | 283° |
| 2026-05-05 16:38 | 45.53579 | -24.24481 | 37381 ft | 412 kts | 283° |
| 2026-05-05 16:39 | 45.54439 | -24.32558 | 37382 ft | 412 kts | 283° |
| 2026-05-05 16:39 | 45.55292 | -24.40638 | 37394 ft | 412 kts | 283° |
| 2026-05-05 16:40 | 45.56138 | -24.48717 | 37387 ft | 412 kts | 283° |
| 2026-05-05 16:40 | 45.56978 | -24.56797 | 37387 ft | 412 kts | 283° |
| 2026-05-05 16:41 | 45.57813 | -24.64880 | 37384 ft | 411 kts | 283° |
| 2026-05-05 16:41 | 45.58642 | -24.72959 | 37384 ft | 411 kts | 283° |
| 2026-05-05 16:42 | 45.59326 | -24.79678 | 37384 ft | 411 kts | 283° |
| 2026-05-05 16:42 | 45.60145 | -24.87763 | 37384 ft | 412 kts | 282° |
| 2026-05-05 16:43 | 45.60958 | -24.95856 | 37387 ft | 411 kts | 282° |
| 2026-05-05 16:43 | 45.61762 | -25.03930 | 37389 ft | 409 kts | 283° |
| 2026-05-05 16:44 | 45.62553 | -25.11936 | 37392 ft | 406 kts | 283° |
| 2026-05-05 16:44 | 45.63339 | -25.19926 | 37391 ft | 406 kts | 283° |
| 2026-05-05 16:45 | 45.64120 | -25.27909 | 37392 ft | 406 kts | 283° |
| 2026-05-05 16:45 | 45.64894 | -25.35901 | 37389 ft | 406 kts | 283° |
| 2026-05-05 16:46 | 45.65662 | -25.43898 | 37392 ft | 406 kts | 283° |
| 2026-05-05 16:46 | 45.66422 | -25.51869 | 37390 ft | 403 kts | 283° |
| 2026-05-05 16:47 | 45.67169 | -25.59775 | 37398 ft | 400 kts | 283° |
| 2026-05-05 16:47 | 45.67910 | -25.67659 | 37393 ft | 400 kts | 283° |
| 2026-05-05 16:48 | 45.68647 | -25.75543 | 37400 ft | 400 kts | 283° |
| 2026-05-05 16:48 | 45.69376 | -25.83423 | 37397 ft | 400 kts | 282° |
| 2026-05-05 16:49 | 45.70100 | -25.91305 | 37396 ft | 400 kts | 282° |
| 2026-05-05 16:49 | 45.70811 | -25.99121 | 37391 ft | 397 kts | 283° |
| 2026-05-05 16:50 | 45.71516 | -26.06938 | 37400 ft | 396 kts | 283° |
| 2026-05-05 16:50 | 45.72217 | -26.14742 | 37399 ft | 396 kts | 283° |
| 2026-05-05 16:51 | 45.72914 | -26.22556 | 37392 ft | 396 kts | 283° |
| 2026-05-05 16:51 | 45.73604 | -26.30370 | 37392 ft | 396 kts | 283° |
| 2026-05-05 16:52 | 45.74289 | -26.38189 | 37391 ft | 396 kts | 283° |
| 2026-05-05 16:52 | 45.74967 | -26.46002 | 37398 ft | 394 kts | 283° |
| 2026-05-05 16:53 | 45.75635 | -26.53768 | 37398 ft | 393 kts | 283° |
| 2026-05-05 16:53 | 45.76299 | -26.61526 | 37397 ft | 392 kts | 283° |
| 2026-05-05 16:54 | 45.76958 | -26.69287 | 37400 ft | 393 kts | 283° |
| 2026-05-05 16:54 | 45.77611 | -26.77047 | 37400 ft | 393 kts | 283° |
| 2026-05-05 16:55 | 45.78259 | -26.84813 | 37400 ft | 393 kts | 283° |
| 2026-05-05 16:55 | 45.78901 | -26.92579 | 37399 ft | 392 kts | 283° |
| 2026-05-05 16:56 | 45.79535 | -27.00319 | 37401 ft | 390 kts | 283° |
| 2026-05-05 16:56 | 45.80162 | -27.08029 | 37402 ft | 389 kts | 283° |
| 2026-05-05 16:57 | 45.80783 | -27.15730 | 37397 ft | 389 kts | 283° |
| 2026-05-05 16:57 | 45.81399 | -27.23436 | 37397 ft | 389 kts | 283° |
| 2026-05-05 16:58 | 45.82010 | -27.31141 | 37401 ft | 389 kts | 283° |
| 2026-05-05 16:58 | 45.82612 | -27.38796 | 37386 ft | 389 kts | 283° |
| 2026-05-05 16:59 | 45.83211 | -27.46492 | 37406 ft | 388 kts | 283° |
| 2026-05-05 16:59 | 45.83805 | -27.54187 | 37406 ft | 388 kts | 283° |
| 2026-05-05 17:00 | 45.84394 | -27.61880 | 37401 ft | 388 kts | 283° |
| 2026-05-05 17:00 | 45.84977 | -27.69573 | 37401 ft | 388 kts | 282° |
| 2026-05-05 17:01 | 45.85554 | -27.77261 | 37404 ft | 387 kts | 282° |
| 2026-05-05 17:01 | 45.86126 | -27.84944 | 37396 ft | 388 kts | 282° |
| 2026-05-05 17:02 | 45.86695 | -27.92642 | 37407 ft | 388 kts | 282° |
| 2026-05-05 17:02 | 45.87258 | -28.00349 | 37406 ft | 388 kts | 282° |
| 2026-05-05 17:03 | 45.87808 | -28.08001 | 37385 ft | 381 kts | 282° |
| 2026-05-05 17:03 | 45.88346 | -28.15534 | 37403 ft | 379 kts | 282° |
| 2026-05-05 17:04 | 45.88883 | -28.23057 | 37391 ft | 379 kts | 282° |
| 2026-05-05 17:04 | 45.89415 | -28.30584 | 37392 ft | 379 kts | 282° |
| 2026-05-05 17:05 | 45.89940 | -28.38107 | 37395 ft | 379 kts | 281° |
| 2026-05-05 17:05 | 45.90459 | -28.45632 | 37394 ft | 379 kts | 281° |
| 2026-05-05 17:06 | 45.90974 | -28.53159 | 37395 ft | 379 kts | 281° |
| 2026-05-05 17:06 | 45.91483 | -28.60690 | 37392 ft | 379 kts | 281° |
| 2026-05-05 17:07 | 45.91988 | -28.68219 | 37389 ft | 379 kts | 281° |
| 2026-05-05 17:07 | 45.92484 | -28.75699 | 37389 ft | 379 kts | 281° |
| 2026-05-05 17:08 | 45.92980 | -28.83239 | 37371 ft | 379 kts | 281° |
| 2026-05-05 17:08 | 45.93471 | -28.90782 | 37387 ft | 380 kts | 281° |
| 2026-05-05 17:09 | 45.93957 | -28.98337 | 37392 ft | 380 kts | 280° |
| 2026-05-05 17:09 | 45.94437 | -29.05887 | 37387 ft | 379 kts | 280° |
| 2026-05-05 17:10 | 45.94912 | -29.13429 | 37387 ft | 379 kts | 280° |
| 2026-05-05 17:10 | 45.95382 | -29.20970 | 37387 ft | 379 kts | 280° |
| 2026-05-05 17:11 | 45.95847 | -29.28514 | 37387 ft | 379 kts | 280° |
| 2026-05-05 17:11 | 45.96308 | -29.36063 | 37387 ft | 379 kts | 280° |
| 2026-05-05 17:12 | 45.96764 | -29.43617 | 37384 ft | 379 kts | 280° |
| 2026-05-05 17:12 | 45.97214 | -29.51169 | 37385 ft | 379 kts | 280° |
| 2026-05-05 17:13 | 45.97660 | -29.58721 | 37387 ft | 379 kts | 280° |
| 2026-05-05 17:13 | 45.98101 | -29.66276 | 37383 ft | 379 kts | 279° |
| 2026-05-05 17:14 | 45.98536 | -29.73818 | 37384 ft | 378 kts | 279° |
| 2026-05-05 17:14 | 45.98965 | -29.81350 | 37373 ft | 378 kts | 279° |
| 2026-05-05 17:15 | 45.99391 | -29.88897 | 37387 ft | 379 kts | 279° |
| 2026-05-05 17:15 | 45.99811 | -29.96454 | 37381 ft | 379 kts | 279° |
| 2026-05-05 17:16 | 46.00197 | -30.04017 | 37381 ft | 380 kts | 278° |
| 2026-05-05 17:16 | 46.00522 | -30.11599 | 37381 ft | 380 kts | 278° |
| 2026-05-05 17:17 | 46.00834 | -30.19184 | 37378 ft | 380 kts | 278° |
| 2026-05-05 17:17 | 46.01145 | -30.26764 | 37378 ft | 380 kts | 278° |
| 2026-05-05 17:18 | 46.01457 | -30.34357 | 37379 ft | 381 kts | 277° |
| 2026-05-05 17:18 | 46.01764 | -30.41958 | 37379 ft | 380 kts | 277° |
| 2026-05-05 17:19 | 46.02064 | -30.49505 | 37377 ft | 381 kts | 277° |
| 2026-05-05 17:19 | 46.02360 | -30.57109 | 37371 ft | 381 kts | 277° |
| 2026-05-05 17:20 | 46.02652 | -30.64708 | 37375 ft | 381 kts | 277° |
| 2026-05-05 17:20 | 46.02938 | -30.72314 | 37371 ft | 380 kts | 277° |
| 2026-05-05 17:21 | 46.03221 | -30.79917 | 37370 ft | 381 kts | 277° |
| 2026-05-05 17:22 | 46.03635 | -30.91357 | 37367 ft | 382 kts | 277° |
| 2026-05-05 17:22 | 46.03904 | -30.98981 | 37368 ft | 382 kts | 277° |
| 2026-05-05 17:23 | 46.04168 | -31.06603 | 37368 ft | 380 kts | 276° |
| 2026-05-05 17:23 | 46.04426 | -31.14191 | 37368 ft | 380 kts | 276° |
| 2026-05-05 17:24 | 46.04679 | -31.21780 | 37366 ft | 380 kts | 276° |
| 2026-05-05 17:24 | 46.04928 | -31.29374 | 37362 ft | 380 kts | 276° |
| 2026-05-05 17:25 | 46.05171 | -31.36960 | 37364 ft | 379 kts | 276° |
| 2026-05-05 17:25 | 46.05409 | -31.44545 | 37362 ft | 379 kts | 276° |
| 2026-05-05 17:26 | 46.05641 | -31.52128 | 37362 ft | 379 kts | 276° |
| 2026-05-05 17:26 | 46.05869 | -31.59718 | 37355 ft | 379 kts | 276° |
| 2026-05-05 17:27 | 46.06092 | -31.67309 | 37355 ft | 379 kts | 276° |
| 2026-05-05 17:27 | 46.06311 | -31.74889 | 37347 ft | 378 kts | 275° |
| 2026-05-05 17:28 | 46.06523 | -31.82455 | 37351 ft | 378 kts | 275° |
| 2026-05-05 17:28 | 46.06730 | -31.90024 | 37352 ft | 378 kts | 275° |
| 2026-05-05 17:29 | 46.06898 | -31.96318 | 37354 ft | 378 kts | 275° |
| 2026-05-05 17:29 | 46.07128 | -32.05113 | 37352 ft | 378 kts | 275° |
| 2026-05-05 17:30 | 46.07320 | -32.12680 | 37340 ft | 378 kts | 275° |
| 2026-05-05 17:30 | 46.07478 | -32.19024 | 37341 ft | 378 kts | 275° |
| 2026-05-05 17:31 | 46.07661 | -32.26594 | 37344 ft | 378 kts | 275° |
| 2026-05-05 17:31 | 46.07838 | -32.34112 | 37341 ft | 378 kts | 275° |
| 2026-05-05 17:32 | 46.08011 | -32.41679 | 37335 ft | 378 kts | 274° |
| 2026-05-05 17:32 | 46.08178 | -32.49219 | 37336 ft | 376 kts | 274° |
| 2026-05-05 17:33 | 46.08341 | -32.56756 | 37337 ft | 376 kts | 274° |
| 2026-05-05 17:33 | 46.08498 | -32.64290 | 37335 ft | 376 kts | 274° |
| 2026-05-05 17:34 | 46.08651 | -32.71828 | 37328 ft | 376 kts | 274° |
| 2026-05-05 17:34 | 46.08797 | -32.79323 | 37326 ft | 373 kts | 274° |
| 2026-05-05 17:35 | 46.08939 | -32.86790 | 37324 ft | 373 kts | 274° |
| 2026-05-05 17:35 | 46.09075 | -32.94254 | 37319 ft | 373 kts | 274° |
| 2026-05-05 17:36 | 46.09207 | -33.01721 | 37316 ft | 373 kts | 274° |
| 2026-05-05 17:36 | 46.09333 | -33.09185 | 37318 ft | 373 kts | 274° |
| 2026-05-05 17:37 | 46.09455 | -33.16651 | 37309 ft | 373 kts | 274° |
| 2026-05-05 17:37 | 46.09570 | -33.24031 | 37311 ft | 367 kts | 273° |
| 2026-05-05 17:38 | 46.09679 | -33.31340 | 37311 ft | 364 kts | 273° |
| 2026-05-05 17:38 | 46.09784 | -33.38635 | 37311 ft | 364 kts | 273° |
| 2026-05-05 17:39 | 46.09885 | -33.45930 | 37309 ft | 364 kts | 273° |
| 2026-05-05 17:39 | 46.09981 | -33.53223 | 37308 ft | 364 kts | 273° |
| 2026-05-05 17:40 | 46.10072 | -33.60516 | 37310 ft | 364 kts | 272° |
| 2026-05-05 17:40 | 46.10158 | -33.67804 | 37293 ft | 364 kts | 272° |
| 2026-05-05 17:41 | 46.10240 | -33.75085 | 37309 ft | 363 kts | 272° |
| 2026-05-05 17:41 | 46.10318 | -33.82359 | 37298 ft | 363 kts | 271° |
| 2026-05-05 17:42 | 46.10390 | -33.89636 | 37297 ft | 363 kts | 271° |
| 2026-05-05 17:42 | 46.10457 | -33.96911 | 37305 ft | 363 kts | 271° |
| 2026-05-05 17:43 | 46.10520 | -34.04191 | 37294 ft | 363 kts | 271° |
| 2026-05-05 17:43 | 46.10579 | -34.11471 | 37293 ft | 363 kts | 271° |
| 2026-05-05 17:44 | 46.10632 | -34.18749 | 37297 ft | 363 kts | 271° |
| 2026-05-05 17:44 | 46.10681 | -34.25981 | 37286 ft | 363 kts | 271° |
| 2026-05-05 17:45 | 46.10726 | -34.33261 | 37281 ft | 363 kts | 271° |
| 2026-05-05 17:45 | 46.10766 | -34.40546 | 37287 ft | 364 kts | 271° |
| 2026-05-05 17:46 | 46.10802 | -34.47832 | 37289 ft | 364 kts | 270° |
| 2026-05-05 17:46 | 46.10833 | -34.55117 | 37282 ft | 364 kts | 270° |
| 2026-05-05 17:47 | 46.10859 | -34.62409 | 37275 ft | 364 kts | 270° |
| 2026-05-05 17:47 | 46.10881 | -34.69710 | 37274 ft | 365 kts | 270° |
| 2026-05-05 17:48 | 46.10898 | -34.77027 | 37273 ft | 365 kts | 270° |
| 2026-05-05 17:48 | 46.10910 | -34.84349 | 37270 ft | 365 kts | 270° |
| 2026-05-05 17:49 | 46.10917 | -34.91672 | 37264 ft | 365 kts | 270° |
| 2026-05-05 17:49 | 46.10920 | -34.98995 | 37265 ft | 366 kts | 270° |
| 2026-05-05 17:50 | 46.10919 | -35.06325 | 37263 ft | 365 kts | 270° |
| 2026-05-05 17:50 | 46.10913 | -35.13649 | 37256 ft | 366 kts | 269° |
| 2026-05-05 17:51 | 46.10903 | -35.21023 | 37256 ft | 371 kts | 269° |
| 2026-05-05 17:51 | 46.10885 | -35.28481 | 37254 ft | 373 kts | 269° |
| 2026-05-05 17:52 | 46.10864 | -35.35953 | 37254 ft | 373 kts | 269° |
| 2026-05-05 17:52 | 46.10838 | -35.43418 | 37246 ft | 373 kts | 269° |
| 2026-05-05 17:53 | 46.10808 | -35.50887 | 37248 ft | 373 kts | 268° |
| 2026-05-05 17:53 | 46.10772 | -35.58356 | 37249 ft | 373 kts | 268° |
| 2026-05-05 17:54 | 46.10732 | -35.65836 | 37244 ft | 375 kts | 268° |
| 2026-05-05 17:54 | 46.10686 | -35.73366 | 37237 ft | 376 kts | 268° |
| 2026-05-05 17:55 | 46.10635 | -35.80899 | 37243 ft | 376 kts | 268° |
| 2026-05-05 17:55 | 46.10580 | -35.88443 | 37242 ft | 377 kts | 268° |
| 2026-05-05 17:56 | 46.10519 | -35.96007 | 37239 ft | 378 kts | 267° |
| 2026-05-05 17:56 | 46.10452 | -36.03583 | 37238 ft | 378 kts | 267° |
| 2026-05-05 17:57 | 46.10382 | -36.11157 | 37237 ft | 378 kts | 267° |
| 2026-05-05 17:57 | 46.10306 | -36.18680 | 37239 ft | 378 kts | 267° |
| 2026-05-05 17:58 | 46.10225 | -36.26249 | 37240 ft | 378 kts | 267° |
| 2026-05-05 17:58 | 46.10139 | -36.33817 | 37238 ft | 378 kts | 267° |
| 2026-05-05 17:59 | 46.10048 | -36.41386 | 37238 ft | 378 kts | 267° |
| 2026-05-05 17:59 | 46.09953 | -36.48956 | 37238 ft | 378 kts | 267° |
| 2026-05-05 18:00 | 46.09852 | -36.56523 | 37241 ft | 378 kts | 266° |
| 2026-05-05 18:00 | 46.09747 | -36.64097 | 37243 ft | 378 kts | 266° |
| 2026-05-05 18:01 | 46.09635 | -36.71672 | 37243 ft | 378 kts | 266° |
| 2026-05-05 18:01 | 46.09519 | -36.79246 | 37243 ft | 378 kts | 266° |
| 2026-05-05 18:02 | 46.09398 | -36.86825 | 37250 ft | 378 kts | 266° |
| 2026-05-05 18:02 | 46.09272 | -36.94397 | 37248 ft | 378 kts | 266° |
| 2026-05-05 18:03 | 46.09141 | -37.01971 | 37252 ft | 378 kts | 266° |
| 2026-05-05 18:03 | 46.09005 | -37.09545 | 37252 ft | 378 kts | 266° |
| 2026-05-05 18:04 | 46.08864 | -37.17107 | 37263 ft | 378 kts | 265° |
| 2026-05-05 18:04 | 46.08719 | -37.24669 | 37274 ft | 378 kts | 265° |
| 2026-05-05 18:05 | 46.08568 | -37.32221 | 37253 ft | 377 kts | 265° |
| 2026-05-05 18:05 | 46.08413 | -37.39766 | 37260 ft | 377 kts | 265° |
| 2026-05-05 18:06 | 46.08252 | -37.47307 | 37260 ft | 377 kts | 265° |
| 2026-05-05 18:06 | 46.08088 | -37.54802 | 37270 ft | 377 kts | 265° |
| 2026-05-05 18:07 | 46.07918 | -37.62326 | 37270 ft | 375 kts | 265° |
| 2026-05-05 18:07 | 46.07743 | -37.69883 | 37272 ft | 375 kts | 265° |
| 2026-05-05 18:08 | 46.07563 | -37.77392 | 37273 ft | 375 kts | 265° |
| 2026-05-05 18:08 | 46.07380 | -37.84846 | 37273 ft | 375 kts | 265° |
| 2026-05-05 18:09 | 46.07191 | -37.92348 | 37304 ft | 375 kts | 264° |
| 2026-05-05 18:09 | 46.06999 | -37.99833 | 37273 ft | 373 kts | 264° |
| 2026-05-05 18:10 | 46.06801 | -38.07289 | 37274 ft | 372 kts | 264° |
| 2026-05-05 18:10 | 46.06599 | -38.14729 | 37279 ft | 371 kts | 264° |
| 2026-05-05 18:11 | 46.06392 | -38.22151 | 37288 ft | 371 kts | 264° |
| 2026-05-05 18:11 | 46.06181 | -38.29578 | 37286 ft | 371 kts | 264° |
| 2026-05-05 18:12 | 46.05965 | -38.37004 | 37289 ft | 371 kts | 264° |
| 2026-05-05 18:12 | 46.05744 | -38.44425 | 37286 ft | 371 kts | 264° |
| 2026-05-05 18:13 | 46.05518 | -38.51848 | 37294 ft | 371 kts | 264° |
| 2026-05-05 18:13 | 46.05289 | -38.59255 | 37287 ft | 370 kts | 264° |
| 2026-05-05 18:14 | 46.05054 | -38.66653 | 37289 ft | 370 kts | 263° |
| 2026-05-05 18:14 | 46.04814 | -38.74060 | 37289 ft | 371 kts | 263° |
| 2026-05-05 18:15 | 46.04570 | -38.81467 | 37291 ft | 371 kts | 263° |
| 2026-05-05 18:15 | 46.04322 | -38.88823 | 37294 ft | 370 kts | 263° |
| 2026-05-05 18:16 | 46.04069 | -38.96224 | 37290 ft | 370 kts | 263° |
| 2026-05-05 18:16 | 46.03810 | -39.03627 | 37294 ft | 370 kts | 263° |
| 2026-05-05 18:17 | 46.03547 | -39.11030 | 37294 ft | 370 kts | 263° |
| 2026-05-05 18:17 | 46.03279 | -39.18425 | 37292 ft | 370 kts | 263° |
| 2026-05-05 18:18 | 46.03006 | -39.25820 | 37287 ft | 370 kts | 263° |
| 2026-05-05 18:18 | 46.02729 | -39.33217 | 37297 ft | 371 kts | 263° |
| 2026-05-05 18:19 | 46.02445 | -39.40633 | 37292 ft | 371 kts | 263° |
| 2026-05-05 18:19 | 46.02204 | -39.46849 | 37284 ft | 371 kts | 263° |
| 2026-05-05 18:20 | 46.01915 | -39.54200 | 37297 ft | 370 kts | 263° |
| 2026-05-05 18:20 | 46.01620 | -39.61577 | 37295 ft | 369 kts | 263° |
| 2026-05-05 18:21 | 46.01320 | -39.68947 | 37298 ft | 369 kts | 263° |
| 2026-05-05 18:21 | 46.01016 | -39.76317 | 37298 ft | 369 kts | 263° |
| 2026-05-05 18:22 | 46.00706 | -39.83684 | 37296 ft | 369 kts | 263° |
| 2026-05-05 18:22 | 46.00393 | -39.91050 | 37300 ft | 369 kts | 263° |
| 2026-05-05 18:23 | 46.00074 | -39.98409 | 37303 ft | 368 kts | 263° |
| 2026-05-05 18:23 | 45.99706 | -40.05730 | 37303 ft | 366 kts | 262° |
| 2026-05-05 18:24 | 45.99293 | -40.13018 | 37304 ft | 366 kts | 262° |
| 2026-05-05 18:24 | 45.98872 | -40.20311 | 37302 ft | 366 kts | 262° |
| 2026-05-05 18:25 | 45.98455 | -40.27556 | 37301 ft | 366 kts | 262° |
| 2026-05-05 18:25 | 45.98030 | -40.34893 | 37301 ft | 366 kts | 262° |
| 2026-05-05 18:26 | 45.97608 | -40.42129 | 37304 ft | 366 kts | 262° |
| 2026-05-05 18:26 | 45.97179 | -40.49402 | 37304 ft | 364 kts | 262° |
| 2026-05-05 18:27 | 45.96747 | -40.56647 | 37305 ft | 364 kts | 262° |
| 2026-05-05 18:27 | 45.96310 | -40.63885 | 37307 ft | 364 kts | 262° |
| 2026-05-05 18:28 | 45.95644 | -40.74767 | 37307 ft | 366 kts | 261° |
| 2026-05-05 18:28 | 45.95192 | -40.82050 | 37307 ft | 366 kts | 261° |
| 2026-05-05 18:29 | 45.94736 | -40.89339 | 37308 ft | 366 kts | 261° |
| 2026-05-05 18:29 | 45.94277 | -40.96611 | 37309 ft | 365 kts | 261° |
| 2026-05-05 18:30 | 45.93815 | -41.03850 | 37312 ft | 364 kts | 261° |
| 2026-05-05 18:30 | 45.93347 | -41.11088 | 37312 ft | 364 kts | 261° |
| 2026-05-05 18:31 | 45.92875 | -41.18331 | 37311 ft | 364 kts | 261° |
| 2026-05-05 18:31 | 45.92399 | -41.25565 | 37314 ft | 364 kts | 261° |
| 2026-05-05 18:32 | 45.91918 | -41.32800 | 37314 ft | 364 kts | 261° |
| 2026-05-05 18:32 | 45.91437 | -41.39978 | 37351 ft | 363 kts | 261° |
| 2026-05-05 18:33 | 45.90947 | -41.47206 | 37314 ft | 365 kts | 261° |
| 2026-05-05 18:33 | 45.90450 | -41.54460 | 37313 ft | 365 kts | 261° |
| 2026-05-05 18:34 | 45.89950 | -41.61717 | 37313 ft | 365 kts | 261° |
| 2026-05-05 18:34 | 45.89444 | -41.68970 | 37326 ft | 365 kts | 261° |
| 2026-05-05 18:35 | 45.88934 | -41.76224 | 37313 ft | 365 kts | 261° |
| 2026-05-05 18:35 | 45.88420 | -41.83472 | 37312 ft | 365 kts | 261° |
| 2026-05-05 18:36 | 45.87902 | -41.90706 | 37311 ft | 363 kts | 261° |
| 2026-05-05 18:36 | 45.87382 | -41.97907 | 37323 ft | 363 kts | 261° |
| 2026-05-05 18:37 | 45.86857 | -42.05105 | 37316 ft | 363 kts | 261° |
| 2026-05-05 18:37 | 45.86327 | -42.12308 | 37324 ft | 364 kts | 261° |
| 2026-05-05 18:38 | 45.85788 | -42.19565 | 37316 ft | 367 kts | 261° |
| 2026-05-05 18:38 | 45.85242 | -42.26854 | 37316 ft | 368 kts | 261° |
| 2026-05-05 18:39 | 45.84693 | -42.34142 | 37313 ft | 367 kts | 261° |
| 2026-05-05 18:39 | 45.84140 | -42.41412 | 37314 ft | 366 kts | 261° |
| 2026-05-05 18:40 | 45.83583 | -42.48676 | 37314 ft | 366 kts | 261° |
| 2026-05-05 18:40 | 45.83020 | -42.55939 | 37314 ft | 366 kts | 261° |
| 2026-05-05 18:41 | 45.82453 | -42.63196 | 37314 ft | 366 kts | 261° |
| 2026-05-05 18:41 | 45.81886 | -42.70401 | 37311 ft | 366 kts | 260° |
| 2026-05-05 18:42 | 45.81310 | -42.77659 | 37304 ft | 366 kts | 260° |
| 2026-05-05 18:42 | 45.80729 | -42.84917 | 37313 ft | 368 kts | 260° |
| 2026-05-05 18:43 | 45.80138 | -42.92232 | 37316 ft | 370 kts | 260° |
| 2026-05-05 18:43 | 45.79542 | -42.99564 | 37312 ft | 371 kts | 260° |
| 2026-05-05 18:44 | 45.78942 | -43.06894 | 37314 ft | 370 kts | 260° |
| 2026-05-05 18:44 | 45.78336 | -43.14222 | 37314 ft | 370 kts | 260° |
| 2026-05-05 18:45 | 45.77726 | -43.21544 | 37309 ft | 370 kts | 260° |
| 2026-05-05 18:45 | 45.77112 | -43.28863 | 37307 ft | 369 kts | 260° |
| 2026-05-05 18:46 | 45.76496 | -43.36149 | 37312 ft | 368 kts | 260° |
| 2026-05-05 18:46 | 45.75875 | -43.43425 | 37311 ft | 368 kts | 260° |
| 2026-05-05 18:47 | 45.75250 | -43.50699 | 37326 ft | 368 kts | 260° |
| 2026-05-05 18:47 | 45.74616 | -43.58011 | 37314 ft | 372 kts | 260° |
| 2026-05-05 18:48 | 45.73975 | -43.65357 | 37312 ft | 372 kts | 260° |
| 2026-05-05 18:48 | 45.73330 | -43.72705 | 37310 ft | 372 kts | 260° |
| 2026-05-05 18:49 | 45.72684 | -43.80004 | 37303 ft | 372 kts | 260° |
| 2026-05-05 18:49 | 45.72029 | -43.87346 | 37313 ft | 372 kts | 260° |
| 2026-05-05 18:50 | 45.71369 | -43.94690 | 37302 ft | 372 kts | 260° |
| 2026-05-05 18:50 | 45.70704 | -44.02030 | 37303 ft | 372 kts | 260° |
| 2026-05-05 18:51 | 45.70035 | -44.09370 | 37305 ft | 372 kts | 260° |
| 2026-05-05 18:51 | 45.69361 | -44.16708 | 37312 ft | 372 kts | 260° |
| 2026-05-05 18:52 | 45.68680 | -44.24054 | 37309 ft | 374 kts | 260° |
| 2026-05-05 18:52 | 45.67990 | -44.31461 | 37306 ft | 376 kts | 260° |
| 2026-05-05 18:53 | 45.67294 | -44.38879 | 37301 ft | 376 kts | 260° |
| 2026-05-05 18:53 | 45.66593 | -44.46296 | 37301 ft | 376 kts | 260° |
| 2026-05-05 18:54 | 45.65888 | -44.53706 | 37304 ft | 376 kts | 260° |
| 2026-05-05 18:54 | 45.65177 | -44.61119 | 37295 ft | 376 kts | 260° |
| 2026-05-05 18:55 | 45.64462 | -44.68528 | 37295 ft | 376 kts | 260° |
| 2026-05-05 18:55 | 45.63744 | -44.75915 | 37299 ft | 375 kts | 260° |
| 2026-05-05 18:56 | 45.63022 | -44.83295 | 37299 ft | 375 kts | 260° |
| 2026-05-05 18:56 | 45.62293 | -44.90685 | 37302 ft | 377 kts | 260° |
| 2026-05-05 18:57 | 45.61551 | -44.98147 | 37292 ft | 382 kts | 260° |
| 2026-05-05 18:57 | 45.60801 | -45.05665 | 37292 ft | 382 kts | 260° |
| 2026-05-05 18:58 | 45.60047 | -45.13168 | 37293 ft | 381 kts | 260° |
| 2026-05-05 18:58 | 45.59291 | -45.20639 | 37290 ft | 379 kts | 260° |
| 2026-05-05 18:59 | 45.58531 | -45.28088 | 37289 ft | 379 kts | 259° |
| 2026-05-05 18:59 | 45.57766 | -45.35542 | 37290 ft | 379 kts | 259° |
| 2026-05-05 19:00 | 45.56996 | -45.42990 | 37291 ft | 379 kts | 259° |
| 2026-05-05 19:00 | 45.56222 | -45.50434 | 37289 ft | 379 kts | 259° |
| 2026-05-05 19:01 | 45.55443 | -45.57875 | 37304 ft | 379 kts | 259° |
| 2026-05-05 19:01 | 45.54656 | -45.65348 | 37289 ft | 382 kts | 259° |
| 2026-05-05 19:02 | 45.53860 | -45.72854 | 37284 ft | 383 kts | 259° |
| 2026-05-05 19:02 | 45.53065 | -45.80312 | 37284 ft | 383 kts | 259° |
| 2026-05-05 19:03 | 45.52259 | -45.87816 | 37290 ft | 383 kts | 259° |
| 2026-05-05 19:03 | 45.51448 | -45.95322 | 37290 ft | 383 kts | 259° |
| 2026-05-05 19:04 | 45.50632 | -46.02824 | 37282 ft | 383 kts | 259° |
| 2026-05-05 19:04 | 45.49812 | -46.10317 | 37284 ft | 382 kts | 259° |
| 2026-05-05 19:05 | 45.48988 | -46.17801 | 37284 ft | 382 kts | 259° |
| 2026-05-05 19:05 | 45.48158 | -46.25283 | 37316 ft | 383 kts | 259° |
| 2026-05-05 19:06 | 45.47320 | -46.32795 | 37281 ft | 386 kts | 259° |
| 2026-05-05 19:06 | 45.46472 | -46.40349 | 37282 ft | 387 kts | 259° |
| 2026-05-05 19:07 | 45.45763 | -46.46636 | 37271 ft | 387 kts | 259° |
| 2026-05-05 19:07 | 45.44762 | -46.55463 | 37279 ft | 386 kts | 259° |
| 2026-05-05 19:08 | 45.43901 | -46.62999 | 37282 ft | 386 kts | 259° |
| 2026-05-05 19:08 | 45.43181 | -46.69264 | 37282 ft | 386 kts | 259° |
| 2026-05-05 19:09 | 45.42168 | -46.78021 | 37282 ft | 386 kts | 259° |
| 2026-05-05 19:09 | 45.41292 | -46.85555 | 37276 ft | 386 kts | 259° |
| 2026-05-05 19:10 | 45.40554 | -46.91864 | 37266 ft | 386 kts | 259° |
| 2026-05-05 19:10 | 45.39669 | -46.99386 | 37279 ft | 385 kts | 259° |
| 2026-05-05 19:11 | 45.38789 | -47.06827 | 37273 ft | 385 kts | 259° |
| 2026-05-05 19:11 | 45.37894 | -47.14341 | 37276 ft | 385 kts | 259° |
| 2026-05-05 19:12 | 45.36989 | -47.21899 | 37276 ft | 385 kts | 259° |
| 2026-05-05 19:12 | 45.36086 | -47.29402 | 37279 ft | 385 kts | 259° |
| 2026-05-05 19:13 | 45.35184 | -47.36851 | 37266 ft | 385 kts | 259° |
| 2026-05-05 19:13 | 45.34271 | -47.44348 | 37282 ft | 385 kts | 259° |
| 2026-05-05 19:14 | 45.33355 | -47.51832 | 37281 ft | 384 kts | 259° |
| 2026-05-05 19:14 | 45.32433 | -47.59314 | 37298 ft | 384 kts | 259° |
| 2026-05-05 19:15 | 45.31503 | -47.66822 | 37281 ft | 388 kts | 259° |
| 2026-05-05 19:15 | 45.30562 | -47.74380 | 37275 ft | 389 kts | 259° |
| 2026-05-05 19:16 | 45.29614 | -47.81944 | 37275 ft | 389 kts | 259° |
| 2026-05-05 19:16 | 45.28663 | -47.89496 | 37273 ft | 388 kts | 259° |
| 2026-05-05 19:17 | 45.27714 | -47.96987 | 37274 ft | 388 kts | 259° |
| 2026-05-05 19:17 | 45.26754 | -48.04524 | 37273 ft | 388 kts | 259° |
| 2026-05-05 19:18 | 45.25790 | -48.12055 | 37273 ft | 388 kts | 259° |
| 2026-05-05 19:18 | 45.24820 | -48.19587 | 37273 ft | 388 kts | 259° |
| 2026-05-05 19:19 | 45.23846 | -48.27112 | 37270 ft | 388 kts | 259° |
| 2026-05-05 19:19 | 45.22864 | -48.34653 | 37271 ft | 390 kts | 259° |
| 2026-05-05 19:20 | 45.21872 | -48.42231 | 37265 ft | 391 kts | 259° |
| 2026-05-05 19:20 | 45.20875 | -48.49817 | 37265 ft | 391 kts | 259° |
| 2026-05-05 19:21 | 45.19871 | -48.57404 | 37269 ft | 391 kts | 259° |
| 2026-05-05 19:21 | 45.18863 | -48.64982 | 37269 ft | 391 kts | 259° |
| 2026-05-05 19:22 | 45.17850 | -48.72559 | 37252 ft | 391 kts | 259° |
| 2026-05-05 19:22 | 45.16833 | -48.80125 | 37266 ft | 390 kts | 259° |
| 2026-05-05 19:23 | 45.15814 | -48.87670 | 37269 ft | 390 kts | 259° |
| 2026-05-05 19:23 | 45.14790 | -48.95210 | 37297 ft | 390 kts | 259° |
| 2026-05-05 19:24 | 45.13765 | -49.02714 | 37262 ft | 392 kts | 259° |
| 2026-05-05 19:24 | 45.12725 | -49.10295 | 37265 ft | 392 kts | 259° |
| 2026-05-05 19:25 | 45.11680 | -49.17869 | 37257 ft | 392 kts | 259° |
| 2026-05-05 19:25 | 45.10630 | -49.25439 | 37265 ft | 391 kts | 259° |
| 2026-05-05 19:26 | 45.09577 | -49.32995 | 37266 ft | 391 kts | 259° |
| 2026-05-05 19:26 | 45.08520 | -49.40546 | 37264 ft | 391 kts | 259° |
| 2026-05-05 19:27 | 45.07456 | -49.48100 | 37268 ft | 391 kts | 259° |
| 2026-05-05 19:27 | 45.06388 | -49.55650 | 37262 ft | 391 kts | 259° |
| 2026-05-05 19:28 | 45.05315 | -49.63194 | 37279 ft | 391 kts | 259° |
| 2026-05-05 19:28 | 45.04236 | -49.70740 | 37263 ft | 392 kts | 259° |
| 2026-05-05 19:29 | 45.03152 | -49.78285 | 37262 ft | 392 kts | 259° |
| 2026-05-05 19:29 | 45.02063 | -49.85835 | 37262 ft | 392 kts | 259° |
| 2026-05-05 19:30 | 45.00968 | -49.93380 | 37265 ft | 392 kts | 259° |
| 2026-05-05 19:30 | 45.00014 | -50.00953 | 37262 ft | 392 kts | 263° |
| 2026-05-05 19:31 | 44.99491 | -50.08611 | 37260 ft | 392 kts | 265° |
| 2026-05-05 19:31 | 44.99050 | -50.16273 | 37264 ft | 391 kts | 265° |
| 2026-05-05 19:32 | 44.98619 | -50.23887 | 37273 ft | 391 kts | 265° |
| 2026-05-05 19:32 | 44.98172 | -50.31551 | 37263 ft | 392 kts | 265° |
| 2026-05-05 19:33 | 44.97716 | -50.39213 | 37265 ft | 392 kts | 265° |
| 2026-05-05 19:33 | 44.97252 | -50.46878 | 37257 ft | 392 kts | 265° |
| 2026-05-05 19:34 | 44.96783 | -50.54545 | 37257 ft | 392 kts | 265° |
| 2026-05-05 19:35 | 44.96070 | -50.66032 | 37257 ft | 391 kts | 265° |
| 2026-05-05 19:35 | 44.95590 | -50.73685 | 37252 ft | 391 kts | 265° |
| 2026-05-05 19:36 | 44.95103 | -50.81339 | 37264 ft | 392 kts | 265° |
| 2026-05-05 19:36 | 44.94612 | -50.88995 | 37257 ft | 392 kts | 265° |
| 2026-05-05 19:37 | 44.94115 | -50.96651 | 37251 ft | 392 kts | 265° |
| 2026-05-05 19:37 | 44.93613 | -51.04313 | 37255 ft | 392 kts | 265° |
| 2026-05-05 19:38 | 44.93106 | -51.11968 | 37240 ft | 392 kts | 265° |
| 2026-05-05 19:38 | 44.92594 | -51.19619 | 37250 ft | 391 kts | 265° |
| 2026-05-05 19:39 | 44.92077 | -51.27263 | 37250 ft | 391 kts | 265° |
| 2026-05-05 19:39 | 44.91555 | -51.34910 | 37255 ft | 392 kts | 265° |
| 2026-05-05 19:40 | 44.91028 | -51.42560 | 37246 ft | 392 kts | 265° |
| 2026-05-05 19:40 | 44.90495 | -51.50211 | 37246 ft | 392 kts | 265° |
| 2026-05-05 19:41 | 44.89957 | -51.57869 | 37247 ft | 392 kts | 265° |
| 2026-05-05 19:41 | 44.89417 | -51.65470 | 37246 ft | 392 kts | 265° |
| 2026-05-05 19:42 | 44.88869 | -51.73118 | 37253 ft | 392 kts | 265° |
| 2026-05-05 19:42 | 44.88316 | -51.80761 | 37244 ft | 392 kts | 265° |
| 2026-05-05 19:43 | 44.87753 | -51.88409 | 37257 ft | 392 kts | 264° |
| 2026-05-05 19:43 | 44.87184 | -51.96061 | 37247 ft | 393 kts | 264° |
| 2026-05-05 19:44 | 44.86608 | -52.03732 | 37244 ft | 393 kts | 264° |
| 2026-05-05 19:44 | 44.86027 | -52.11398 | 37244 ft | 393 kts | 264° |
| 2026-05-05 19:45 | 44.85442 | -52.19065 | 37247 ft | 394 kts | 264° |
| 2026-05-05 19:45 | 44.84850 | -52.26737 | 37236 ft | 394 kts | 264° |
| 2026-05-05 19:46 | 44.84254 | -52.34411 | 37236 ft | 394 kts | 264° |
| 2026-05-05 19:46 | 44.83652 | -52.42081 | 37239 ft | 394 kts | 264° |
| 2026-05-05 19:47 | 44.83044 | -52.49757 | 37242 ft | 395 kts | 264° |
| 2026-05-05 19:47 | 44.82430 | -52.57459 | 37240 ft | 396 kts | 264° |
| 2026-05-05 19:48 | 44.81810 | -52.65155 | 37237 ft | 396 kts | 264° |
| 2026-05-05 19:48 | 44.81185 | -52.72852 | 37236 ft | 396 kts | 264° |
| 2026-05-05 19:49 | 44.80555 | -52.80544 | 37238 ft | 395 kts | 264° |
| 2026-05-05 19:49 | 44.79920 | -52.88236 | 37233 ft | 395 kts | 264° |
| 2026-05-05 19:50 | 44.79280 | -52.95921 | 37229 ft | 395 kts | 264° |
| 2026-05-05 19:50 | 44.78635 | -53.03607 | 37230 ft | 395 kts | 264° |
| 2026-05-05 19:51 | 44.77984 | -53.11290 | 37233 ft | 395 kts | 264° |
| 2026-05-05 19:51 | 44.77329 | -53.18975 | 37233 ft | 395 kts | 264° |
| 2026-05-05 19:52 | 44.76668 | -53.26656 | 37232 ft | 395 kts | 264° |
| 2026-05-05 19:52 | 44.76001 | -53.34342 | 37233 ft | 395 kts | 264° |
| 2026-05-05 19:53 | 44.75335 | -53.41970 | 37230 ft | 395 kts | 264° |
| 2026-05-05 19:53 | 44.74658 | -53.49647 | 37242 ft | 395 kts | 264° |
| 2026-05-05 19:54 | 44.73976 | -53.57338 | 37233 ft | 397 kts | 264° |
| 2026-05-05 19:54 | 44.73285 | -53.65060 | 37232 ft | 398 kts | 264° |
| 2026-05-05 19:55 | 44.72589 | -53.72781 | 37224 ft | 398 kts | 264° |
| 2026-05-05 19:55 | 44.71887 | -53.80497 | 37225 ft | 398 kts | 263° |
| 2026-05-05 19:56 | 44.71181 | -53.88209 | 37222 ft | 398 kts | 263° |
| 2026-05-05 19:56 | 44.70470 | -53.95921 | 37222 ft | 398 kts | 263° |
| 2026-05-05 19:57 | 44.69753 | -54.03626 | 37224 ft | 398 kts | 263° |
| 2026-05-05 19:57 | 44.69153 | -54.10036 | 37228 ft | 399 kts | 264° |
| 2026-05-05 19:58 | 44.68425 | -54.17767 | 37224 ft | 400 kts | 264° |
| 2026-05-05 19:58 | 44.67690 | -54.25507 | 37224 ft | 399 kts | 263° |
| 2026-05-05 19:59 | 44.66951 | -54.33238 | 37222 ft | 399 kts | 263° |
| 2026-05-05 19:59 | 44.66207 | -54.40963 | 37223 ft | 399 kts | 263° |
| 2026-05-05 20:00 | 44.65458 | -54.48685 | 37184 ft | 399 kts | 263° |
| 2026-05-05 20:00 | 44.64703 | -54.56406 | 37224 ft | 399 kts | 263° |
| 2026-05-05 20:01 | 44.63943 | -54.64126 | 37223 ft | 400 kts | 263° |
| 2026-05-05 20:01 | 44.63175 | -54.71876 | 37203 ft | 401 kts | 263° |
| 2026-05-05 20:02 | 44.62406 | -54.79582 | 37218 ft | 401 kts | 263° |
| 2026-05-05 20:02 | 44.61626 | -54.87341 | 37217 ft | 401 kts | 263° |
| 2026-05-05 20:03 | 44.60841 | -54.95096 | 37217 ft | 401 kts | 263° |
| 2026-05-05 20:03 | 44.60051 | -55.02846 | 37214 ft | 401 kts | 263° |
| 2026-05-05 20:04 | 44.59255 | -55.10602 | 37216 ft | 401 kts | 263° |
| 2026-05-05 20:04 | 44.58453 | -55.18360 | 37217 ft | 403 kts | 263° |
| 2026-05-05 20:05 | 44.57643 | -55.26144 | 37214 ft | 404 kts | 263° |
| 2026-05-05 20:05 | 44.56827 | -55.33941 | 37214 ft | 404 kts | 263° |
| 2026-05-05 20:06 | 44.56005 | -55.41733 | 37211 ft | 404 kts | 263° |
| 2026-05-05 20:06 | 44.55178 | -55.49522 | 37206 ft | 404 kts | 263° |
| 2026-05-05 20:07 | 44.54345 | -55.57311 | 37209 ft | 404 kts | 263° |
| 2026-05-05 20:07 | 44.53507 | -55.65100 | 37207 ft | 404 kts | 263° |
| 2026-05-05 20:08 | 44.52663 | -55.72891 | 37196 ft | 405 kts | 263° |
| 2026-05-05 20:08 | 44.51811 | -55.80710 | 37217 ft | 406 kts | 263° |
| 2026-05-05 20:09 | 44.50953 | -55.88530 | 37205 ft | 406 kts | 263° |
| 2026-05-05 20:09 | 44.50090 | -55.96348 | 37207 ft | 406 kts | 263° |
| 2026-05-05 20:10 | 44.49221 | -56.04167 | 37211 ft | 406 kts | 263° |
| 2026-05-05 20:10 | 44.48329 | -56.11977 | 37206 ft | 406 kts | 262° |
| 2026-05-05 20:11 | 44.47401 | -56.19781 | 37224 ft | 406 kts | 262° |
| 2026-05-05 20:11 | 44.46465 | -56.27593 | 37210 ft | 408 kts | 262° |
| 2026-05-05 20:12 | 44.45522 | -56.35430 | 37202 ft | 408 kts | 262° |
| 2026-05-05 20:12 | 44.44582 | -56.43216 | 37204 ft | 408 kts | 262° |
| 2026-05-05 20:13 | 44.43631 | -56.51049 | 37206 ft | 408 kts | 262° |
| 2026-05-05 20:13 | 44.42675 | -56.58879 | 37202 ft | 408 kts | 262° |
| 2026-05-05 20:14 | 44.41713 | -56.66706 | 37203 ft | 408 kts | 262° |
| 2026-05-05 20:14 | 44.40746 | -56.74535 | 37196 ft | 409 kts | 262° |
| 2026-05-05 20:15 | 44.39773 | -56.82368 | 37202 ft | 409 kts | 262° |
| 2026-05-05 20:15 | 44.38793 | -56.90209 | 37200 ft | 409 kts | 262° |
| 2026-05-05 20:16 | 44.37807 | -56.98049 | 37197 ft | 409 kts | 262° |
| 2026-05-05 20:16 | 44.36816 | -57.05885 | 37200 ft | 409 kts | 262° |
| 2026-05-05 20:17 | 44.35819 | -57.13719 | 37206 ft | 410 kts | 262° |
| 2026-05-05 20:17 | 44.34816 | -57.21552 | 37184 ft | 410 kts | 261° |
| 2026-05-05 20:18 | 44.33808 | -57.29384 | 37202 ft | 410 kts | 261° |
| 2026-05-05 20:18 | 44.32794 | -57.37220 | 37195 ft | 410 kts | 261° |
| 2026-05-05 20:19 | 44.31773 | -57.45058 | 37195 ft | 410 kts | 261° |
| 2026-05-05 20:19 | 44.30748 | -57.52892 | 37200 ft | 410 kts | 261° |
| 2026-05-05 20:20 | 44.29717 | -57.60723 | 37192 ft | 410 kts | 261° |
| 2026-05-05 20:20 | 44.28681 | -57.68549 | 37192 ft | 410 kts | 261° |
| 2026-05-05 20:21 | 44.27645 | -57.76325 | 37199 ft | 410 kts | 261° |
| 2026-05-05 20:21 | 44.26596 | -57.84152 | 37193 ft | 410 kts | 261° |
| 2026-05-05 20:22 | 44.25543 | -57.91974 | 37189 ft | 410 kts | 261° |
| 2026-05-05 20:22 | 44.24485 | -57.99792 | 37192 ft | 410 kts | 261° |
| 2026-05-05 20:23 | 44.23422 | -58.07610 | 37186 ft | 410 kts | 261° |
| 2026-05-05 20:23 | 44.22352 | -58.15427 | 37189 ft | 410 kts | 261° |
| 2026-05-05 20:24 | 44.21277 | -58.23241 | 37184 ft | 410 kts | 261° |
| 2026-05-05 20:24 | 44.20198 | -58.31048 | 37189 ft | 410 kts | 261° |
| 2026-05-05 20:25 | 44.19112 | -58.38859 | 37188 ft | 411 kts | 261° |
| 2026-05-05 20:25 | 44.18020 | -58.46669 | 37184 ft | 411 kts | 261° |
| 2026-05-05 20:26 | 44.16924 | -58.54469 | 37184 ft | 411 kts | 261° |
| 2026-05-05 20:26 | 44.15822 | -58.62274 | 37184 ft | 411 kts | 261° |
| 2026-05-05 20:27 | 44.14716 | -58.70071 | 37176 ft | 411 kts | 260° |
| 2026-05-05 20:27 | 44.13603 | -58.77877 | 37186 ft | 411 kts | 260° |
| 2026-05-05 20:28 | 44.12484 | -58.85683 | 37185 ft | 411 kts | 260° |
| 2026-05-05 20:28 | 44.11359 | -58.93492 | 37183 ft | 412 kts | 260° |
| 2026-05-05 20:29 | 44.10229 | -59.01302 | 37185 ft | 412 kts | 260° |
| 2026-05-05 20:29 | 44.09093 | -59.09108 | 37180 ft | 412 kts | 260° |
| 2026-05-05 20:30 | 44.07952 | -59.16913 | 37161 ft | 412 kts | 260° |
| 2026-05-05 20:30 | 44.06805 | -59.24721 | 37184 ft | 412 kts | 260° |
| 2026-05-05 20:31 | 44.05651 | -59.32534 | 37180 ft | 413 kts | 259° |
| 2026-05-05 20:31 | 44.04491 | -59.40348 | 37180 ft | 413 kts | 259° |
| 2026-05-05 20:32 | 44.03326 | -59.48161 | 37176 ft | 413 kts | 259° |
| 2026-05-05 20:32 | 44.02154 | -59.55977 | 37176 ft | 413 kts | 259° |
| 2026-05-05 20:33 | 44.00976 | -59.63795 | 37174 ft | 413 kts | 259° |
| 2026-05-05 20:33 | 43.99793 | -59.71611 | 37174 ft | 414 kts | 259° |
| 2026-05-05 20:34 | 43.98602 | -59.79433 | 37173 ft | 414 kts | 259° |
| 2026-05-05 20:34 | 43.97407 | -59.87248 | 37174 ft | 414 kts | 259° |
| 2026-05-05 20:35 | 43.96213 | -59.95012 | 37170 ft | 414 kts | 259° |
| 2026-05-05 20:35 | 43.95006 | -60.02828 | 37171 ft | 414 kts | 259° |
| 2026-05-05 20:36 | 43.93793 | -60.10645 | 37166 ft | 414 kts | 259° |
| 2026-05-05 20:36 | 43.92575 | -60.18461 | 37164 ft | 415 kts | 259° |
| 2026-05-05 20:37 | 43.91349 | -60.26282 | 37165 ft | 415 kts | 259° |
| 2026-05-05 20:37 | 43.90118 | -60.34103 | 37162 ft | 415 kts | 259° |
| 2026-05-05 20:38 | 43.88881 | -60.41919 | 37167 ft | 415 kts | 259° |
| 2026-05-05 20:38 | 43.87639 | -60.49735 | 37162 ft | 415 kts | 258° |
| 2026-05-05 20:39 | 43.86390 | -60.57553 | 37155 ft | 415 kts | 258° |
| 2026-05-05 20:39 | 43.85136 | -60.65367 | 37150 ft | 416 kts | 258° |
| 2026-05-05 20:40 | 43.83875 | -60.73190 | 37146 ft | 416 kts | 258° |
| 2026-05-05 20:40 | 43.82608 | -60.81011 | 37152 ft | 416 kts | 258° |
| 2026-05-05 20:41 | 43.81336 | -60.88828 | 37163 ft | 416 kts | 258° |
| 2026-05-05 20:41 | 43.80058 | -60.96645 | 37149 ft | 416 kts | 258° |
| 2026-05-05 20:42 | 43.78773 | -61.04464 | 37153 ft | 417 kts | 258° |
| 2026-05-05 20:42 | 43.77484 | -61.12278 | 37146 ft | 417 kts | 258° |
| 2026-05-05 20:43 | 43.76188 | -61.20098 | 37144 ft | 417 kts | 258° |
| 2026-05-05 20:43 | 43.74886 | -61.27917 | 37147 ft | 417 kts | 258° |
| 2026-05-05 20:44 | 43.73579 | -61.35733 | 37140 ft | 417 kts | 258° |
| 2026-05-05 20:44 | 43.72480 | -61.42276 | 37140 ft | 417 kts | 258° |
| 2026-05-05 20:45 | 43.70503 | -61.53995 | 37134 ft | 418 kts | 257° |
| 2026-05-05 20:45 | 43.69177 | -61.61812 | 37140 ft | 418 kts | 257° |
| 2026-05-05 20:46 | 43.67852 | -61.69591 | 37145 ft | 419 kts | 257° |
| 2026-05-05 20:46 | 43.66504 | -61.77469 | 37140 ft | 419 kts | 257° |
| 2026-05-05 20:47 | 43.65158 | -61.85293 | 37133 ft | 419 kts | 257° |
| 2026-05-05 20:47 | 43.63818 | -61.93058 | 37136 ft | 419 kts | 257° |
| 2026-05-05 20:48 | 43.62462 | -62.00878 | 37135 ft | 419 kts | 257° |
| 2026-05-05 20:48 | 43.61100 | -62.08698 | 37132 ft | 420 kts | 257° |
| 2026-05-05 20:49 | 43.59729 | -62.16530 | 37132 ft | 420 kts | 257° |
| 2026-05-05 20:49 | 43.58354 | -62.24357 | 37133 ft | 420 kts | 257° |
| 2026-05-05 20:50 | 43.56975 | -62.32173 | 37126 ft | 420 kts | 256° |
| 2026-05-05 20:50 | 43.55589 | -62.39993 | 37127 ft | 420 kts | 256° |
| 2026-05-05 20:51 | 43.54197 | -62.47810 | 37124 ft | 420 kts | 256° |
| 2026-05-05 20:51 | 43.52801 | -62.55622 | 37123 ft | 420 kts | 256° |
| 2026-05-05 20:52 | 43.51395 | -62.63449 | 37123 ft | 420 kts | 256° |
| 2026-05-05 20:52 | 43.49986 | -62.71262 | 37119 ft | 420 kts | 256° |
| 2026-05-05 20:53 | 43.48571 | -62.79072 | 37109 ft | 420 kts | 256° |
| 2026-05-05 20:53 | 43.47151 | -62.86879 | 37118 ft | 420 kts | 256° |
| 2026-05-05 20:54 | 43.45725 | -62.94684 | 37126 ft | 420 kts | 256° |
| 2026-05-05 20:54 | 43.44304 | -63.02433 | 37115 ft | 421 kts | 256° |
| 2026-05-05 20:55 | 43.42866 | -63.10242 | 37105 ft | 421 kts | 256° |
| 2026-05-05 20:55 | 43.41424 | -63.18038 | 37111 ft | 421 kts | 256° |
| 2026-05-05 20:56 | 43.39975 | -63.25833 | 37101 ft | 421 kts | 256° |
| 2026-05-05 20:56 | 43.38522 | -63.33625 | 37106 ft | 421 kts | 256° |
| 2026-05-05 20:57 | 43.37064 | -63.41409 | 37095 ft | 421 kts | 255° |
| 2026-05-05 20:57 | 43.35600 | -63.49193 | 37095 ft | 420 kts | 255° |
| 2026-05-05 20:58 | 43.34131 | -63.56968 | 37096 ft | 420 kts | 255° |
| 2026-05-05 20:58 | 43.32658 | -63.64738 | 37101 ft | 420 kts | 255° |
| 2026-05-05 20:59 | 43.31179 | -63.72503 | 37101 ft | 420 kts | 255° |
| 2026-05-05 20:59 | 43.29696 | -63.80264 | 37100 ft | 420 kts | 255° |
| 2026-05-05 21:00 | 43.28208 | -63.88016 | 37093 ft | 420 kts | 255° |
| 2026-05-05 21:00 | 43.26716 | -63.95758 | 37101 ft | 420 kts | 255° |
| 2026-05-05 21:01 | 43.25218 | -64.03497 | 37091 ft | 420 kts | 255° |
| 2026-05-05 21:01 | 43.23726 | -64.11181 | 37097 ft | 420 kts | 255° |
| 2026-05-05 21:02 | 43.22208 | -64.18966 | 37090 ft | 420 kts | 255° |
| 2026-05-05 21:02 | 43.20706 | -64.26643 | 37089 ft | 420 kts | 255° |
| 2026-05-05 21:03 | 43.19188 | -64.34372 | 37070 ft | 420 kts | 255° |
| 2026-05-05 21:03 | 43.17657 | -64.42136 | 37079 ft | 419 kts | 255° |
| 2026-05-05 21:04 | 43.16130 | -64.49847 | 37082 ft | 419 kts | 254° |
| 2026-05-05 21:04 | 43.14609 | -64.57501 | 37077 ft | 420 kts | 254° |
| 2026-05-05 21:05 | 43.13072 | -64.65205 | 37079 ft | 420 kts | 254° |
| 2026-05-05 21:05 | 43.11528 | -64.72912 | 37071 ft | 420 kts | 254° |
| 2026-05-05 21:06 | 43.09980 | -64.80613 | 37067 ft | 420 kts | 254° |
| 2026-05-05 21:06 | 43.08426 | -64.88307 | 37074 ft | 420 kts | 254° |
| 2026-05-05 21:07 | 43.06866 | -64.96008 | 37072 ft | 420 kts | 254° |
| 2026-05-05 21:07 | 43.05301 | -65.03698 | 37065 ft | 420 kts | 254° |
| 2026-05-05 21:08 | 43.03733 | -65.11378 | 37070 ft | 420 kts | 254° |
| 2026-05-05 21:08 | 43.02158 | -65.19062 | 37061 ft | 420 kts | 254° |
| 2026-05-05 21:09 | 43.00579 | -65.26736 | 37059 ft | 420 kts | 253° |
| 2026-05-05 21:09 | 42.98994 | -65.34413 | 37056 ft | 420 kts | 253° |
| 2026-05-05 21:10 | 42.97404 | -65.42084 | 37065 ft | 420 kts | 253° |
| 2026-05-05 21:10 | 42.95809 | -65.49747 | 37052 ft | 419 kts | 253° |
| 2026-05-05 21:11 | 42.94210 | -65.57404 | 37050 ft | 419 kts | 253° |
| 2026-05-05 21:11 | 42.92606 | -65.65054 | 37045 ft | 419 kts | 253° |
| 2026-05-05 21:12 | 42.90998 | -65.72698 | 37045 ft | 419 kts | 253° |
| 2026-05-05 21:12 | 42.89382 | -65.80351 | 37045 ft | 420 kts | 253° |
| 2026-05-05 21:13 | 42.87762 | -65.87996 | 37044 ft | 420 kts | 253° |
| 2026-05-05 21:13 | 42.86137 | -65.95633 | 37040 ft | 419 kts | 253° |
| 2026-05-05 21:14 | 42.84512 | -66.03239 | 37038 ft | 419 kts | 253° |
| 2026-05-05 21:14 | 42.82880 | -66.10853 | 37033 ft | 419 kts | 253° |
| 2026-05-05 21:15 | 42.81253 | -66.18416 | 37034 ft | 419 kts | 253° |
| 2026-05-05 21:15 | 42.79609 | -66.26033 | 37033 ft | 419 kts | 253° |
| 2026-05-05 21:16 | 42.77959 | -66.33650 | 37033 ft | 419 kts | 253° |
| 2026-05-05 21:16 | 42.76308 | -66.41240 | 37031 ft | 419 kts | 253° |
| 2026-05-05 21:17 | 42.74650 | -66.48843 | 37019 ft | 418 kts | 253° |
| 2026-05-05 21:17 | 42.72990 | -66.56424 | 37022 ft | 418 kts | 253° |
| 2026-05-05 21:18 | 42.71325 | -66.64002 | 37022 ft | 419 kts | 253° |
| 2026-05-05 21:18 | 42.69653 | -66.71585 | 37015 ft | 418 kts | 253° |
| 2026-05-05 21:19 | 42.67977 | -66.79161 | 37016 ft | 418 kts | 253° |
| 2026-05-05 21:19 | 42.66296 | -66.86733 | 37011 ft | 418 kts | 253° |
| 2026-05-05 21:20 | 42.64614 | -66.94279 | 37012 ft | 417 kts | 253° |
| 2026-05-05 21:20 | 42.62999 | -67.01827 | 37013 ft | 416 kts | 256° |
| 2026-05-05 21:21 | 42.61742 | -67.09514 | 37008 ft | 418 kts | 258° |
| 2026-05-05 21:21 | 42.60600 | -67.17194 | 37001 ft | 418 kts | 258° |
| 2026-05-05 21:22 | 42.59423 | -67.24920 | 37002 ft | 418 kts | 258° |
| 2026-05-05 21:22 | 42.58216 | -67.32607 | 36990 ft | 416 kts | 257° |
| 2026-05-05 21:23 | 42.56994 | -67.40281 | 36994 ft | 416 kts | 257° |
| 2026-05-05 21:23 | 42.55766 | -67.47945 | 36988 ft | 416 kts | 257° |
| 2026-05-05 21:24 | 42.54534 | -67.55614 | 36997 ft | 416 kts | 257° |
| 2026-05-05 21:24 | 42.53302 | -67.63255 | 36977 ft | 414 kts | 257° |
| 2026-05-05 21:25 | 42.52068 | -67.70873 | 36978 ft | 413 kts | 257° |
| 2026-05-05 21:25 | 42.50829 | -67.78487 | 36981 ft | 414 kts | 257° |
| 2026-05-05 21:26 | 42.49585 | -67.86092 | 36980 ft | 414 kts | 257° |
| 2026-05-05 21:26 | 42.48337 | -67.93698 | 36966 ft | 414 kts | 257° |
| 2026-05-05 21:27 | 42.47082 | -68.01303 | 36967 ft | 414 kts | 257° |
| 2026-05-05 21:27 | 42.45824 | -68.08901 | 36979 ft | 414 kts | 257° |
| 2026-05-05 21:28 | 42.44557 | -68.16517 | 36981 ft | 415 kts | 257° |
| 2026-05-05 21:28 | 42.43282 | -68.24146 | 36968 ft | 415 kts | 257° |
| 2026-05-05 21:29 | 42.42007 | -68.31745 | 36981 ft | 414 kts | 257° |
| 2026-05-05 21:29 | 42.40727 | -68.39336 | 36969 ft | 414 kts | 257° |
| 2026-05-05 21:30 | 42.39452 | -68.46872 | 36959 ft | 414 kts | 256° |
| 2026-05-05 21:30 | 42.38163 | -68.54454 | 36980 ft | 413 kts | 256° |
| 2026-05-05 21:31 | 42.36862 | -68.62070 | 36955 ft | 413 kts | 256° |
| 2026-05-05 21:31 | 42.35575 | -68.69578 | 36963 ft | 414 kts | 256° |
| 2026-05-05 21:32 | 42.34384 | -68.76492 | 36953 ft | 414 kts | 256° |
| 2026-05-05 21:32 | 42.33075 | -68.84068 | 36957 ft | 414 kts | 256° |
| 2026-05-05 21:33 | 42.32853 | -68.85350 | 36956 ft | 414 kts | 256° |
| 2026-05-05 21:33 | 42.30411 | -68.99379 | 36936 ft | 412 kts | 256° |
| 2026-05-05 21:34 | 42.29092 | -69.06913 | 36947 ft | 412 kts | 256° |
| 2026-05-05 21:34 | 42.27768 | -69.14444 | 36939 ft | 412 kts | 256° |
| 2026-05-05 21:35 | 42.26437 | -69.21984 | 36942 ft | 413 kts | 256° |
| 2026-05-05 21:35 | 42.25101 | -69.29520 | 36932 ft | 413 kts | 256° |
| 2026-05-05 21:36 | 42.23761 | -69.37052 | 36938 ft | 413 kts | 256° |
| 2026-05-05 21:36 | 42.22416 | -69.44575 | 36926 ft | 413 kts | 256° |
| 2026-05-05 21:37 | 42.21067 | -69.52097 | 36926 ft | 412 kts | 256° |
| 2026-05-05 21:37 | 42.19713 | -69.59608 | 36929 ft | 411 kts | 256° |
| 2026-05-05 21:38 | 42.18359 | -69.67096 | 36911 ft | 411 kts | 256° |